Data for 07/24/2008

Time Sea-Level Adjusted Pressure Absolute Pressure Temperature Relative Humidity Dew Point Precipitation   
(mb) (inHg) (mb) (inHg) (C) (F) (%) (C) (F) (mm) (in)
00:01 1019 30.09 848 25.04 16.4 61.6 63 9.4 49 0
00:02 1019 30.09 848 25.04 16.3 61.4 64 9.7 49.4 0
00:03 1019 30.09 848 25.04 16.3 61.3 63 9.3 48.7 0
00:04 1019 30.09 848 25.04 16.3 61.4 59 8.5 47.3 0
00:05 1019 30.09 848 25.04 16.7 62 57 8.1 46.6 0
00:06 1019 30.09 848 25.04 17 62.6 56 8.4 47.1 0
00:07 1019 30.09 848 25.04 17.2 62.9 55 8.2 46.8 0
00:08 1019 30.09 848 25.04 17.2 63 57 8.7 47.7 0
00:09 1019 30.09 848 25.04 17.1 62.7 60 9.3 48.7 0
00:10 1019 30.09 848 25.04 16.9 62.4 61 9.4 48.9 0
00:11 1019 30.09 849 25.07 16.8 62.2 61 9.3 48.8 0
00:12 1019 30.09 849 25.07 16.7 62 60 9.1 48.3 0
00:13 1019 30.09 848 25.04 16.6 61.9 62 9.3 48.8 0
00:14 1019 30.09 848 25.04 16.6 61.9 61 9.1 48.4 0
00:15 1019 30.09 849 25.07 16.7 62 62 9.3 48.8 0
00:16 1019 30.09 849 25.07 16.6 61.8 61 9.1 48.4 0
00:17 1019 30.09 849 25.07 16.6 61.8 62 9.4 48.9 0
00:18 1019 30.09 849 25.07 16.6 61.8 62 9.3 48.8 0
00:19 1019 30.09 849 25.07 16.6 61.9 61 9.1 48.3 0
00:20 1019 30.09 849 25.07 16.7 62 60 9 48.2 0
00:21 1019 30.09 849 25.07 16.8 62.2 60 9.1 48.4 0
00:22 1019 30.09 849 25.07 16.8 62.2 61 9.2 48.6 0
00:23 1019 30.09 849 25.07 16.7 62.1 61 9.3 48.8 0
00:24 1019 30.09 849 25.07 16.6 61.8 62 9.3 48.8 0
00:25 1019 30.09 849 25.07 16.5 61.7 60 8.7 47.7 0
00:26 1019 30.09 849 25.07 16.7 62 59 8.8 47.8 0
00:27 1019 30.09 849 25.07 16.8 62.2 59 8.8 47.8 0
00:28 1019 30.09 849 25.07 16.8 62.3 58 8.6 47.6 0
00:29 1019 30.09 849 25.07 16.9 62.4 57 8.4 47.2 0
00:30 1019 30.09 849 25.07 17 62.6 58 8.7 47.6 0
00:31 1019 30.09 849 25.07 17.1 62.7 56 8.3 46.9 0
00:32 1019 30.09 849 25.07 17.2 62.9 56 8.4 47.1 0
00:33 1019 30.09 849 25.07 17.2 62.9 57 8.6 47.4 0
00:34 1019 30.09 849 25.07 17.2 62.9 57 8.6 47.5 0
00:35 1019 30.09 849 25.07 17.1 62.8 57 8.6 47.6 0
00:36 1019 30.09 849 25.07 17.1 62.8 57 8.6 47.5 0
00:37 1019 30.09 849 25.07 17.1 62.8 56 8.5 47.2 0
00:38 1019 30.09 849 25.07 17.2 62.9 56 8.5 47.3 0
00:39 1019 30.09 849 25.07 17.2 63 55 8.3 47 0
00:40 1019 30.09 849 25.07 17.4 63.2 55 8.3 47 0
00:41 1019 30.09 849 25.07 17.4 63.2 55 8.3 47 0
00:42 1019 30.09 849 25.07 17.4 63.2 56 8.7 47.6 0
00:43 1019 30.09 849 25.07 17.3 63.2 54 8.1 46.6 0
00:44 1019 30.09 849 25.07 17.5 63.4 55 8.4 47.1 0
00:45 1020 30.12 849 25.07 17.4 63.4 54 8.2 46.8 0
00:46 1019 30.09 849 25.07 17.5 63.5 54 8.3 47 0
00:47 1020 30.12 849 25.07 17.6 63.6 52 7.6 45.7 0
00:48 1020 30.12 849 25.07 17.7 63.8 53 8 46.4 0
00:49 1020 30.12 849 25.07 17.8 64 52 7.9 46.3 0
00:50 1020 30.12 849 25.07 17.9 64.2 52 8.1 46.6 0
00:51 1020 30.12 849 25.07 17.9 64.2 52 8.1 46.6 0
00:52 1020 30.12 849 25.07 17.9 64.2 52 7.9 46.3 0
00:53 1020 30.12 849 25.07 18 64.3 51 7.8 46 0
00:54 1020 30.12 849 25.07 18.1 64.6 53 8.4 47.1 0
00:55 1020 30.12 849 25.07 18 64.5 51 7.8 46 0
00:56 1020 30.12 849 25.07 18.1 64.5 51 7.9 46.2 0
00:57 1020 30.12 849 25.07 18.1 64.5 52 8.1 46.6 0
00:58 1020 30.12 849 25.07 18 64.4 52 8.2 46.8 0
00:59 1020 30.12 849 25.07 17.9 64.2 54 8.5 47.2 0
01:00 1020 30.12 849 25.07 17.8 64 53 8.1 46.5 0
01:01 1020 30.12 849 25.07 17.8 64 54 8.4 47 0
01:02 1020 30.12 849 25.07 17.8 64 52 8 46.4 0
01:03 1020 30.12 849 25.07 17.9 64.1 53 8.2 46.8 0
01:04 1020 30.12 849 25.07 17.8 64.1 53 8.2 46.7 0
01:05 1020 30.12 849 25.07 17.8 64.1 52 8 46.4 0
01:06 1020 30.12 849 25.07 17.9 64.2 52 8 46.4 0
01:07 1020 30.12 849 25.07 17.9 64.2 54 8.4 47.2 0
01:08 1020 30.12 849 25.07 17.8 64 54 8.5 47.2 0
01:09 1020 30.12 849 25.07 17.6 63.7 52 7.7 45.9 0
01:10 1020 30.12 849 25.07 17.6 63.7 53 7.9 46.2 0
01:11 1020 30.12 849 25.07 17.7 63.8 52 7.7 45.8 0
01:12 1020 30.12 849 25.07 17.8 64 50 7.2 45 0
01:13 1020 30.12 849 25.07 17.9 64.1 50 7.4 45.3 0
01:14 1020 30.12 849 25.07 17.9 64.2 50 7.5 45.5 0
01:15 1020 30.12 850 25.1 17.8 64.1 54 8.5 47.3 0
01:16 1020 30.12 850 25.1 17.7 63.8 55 8.7 47.7 0
01:17 1020 30.12 850 25.1 17.5 63.5 58 9.2 48.5 0
01:18 1020 30.12 850 25.1 17.3 63.2 57 8.7 47.7 0
01:19 1020 30.12 850 25.1 17.2 63 57 8.6 47.5 0
01:20 1021 30.15 850 25.1 17.2 63 57 8.8 47.8 0
01:21 1021 30.15 850 25.1 17.2 62.9 57 8.7 47.6 0
01:22 1021 30.15 850 25.1 17.2 62.9 57 8.6 47.5 0
01:23 1020 30.12 850 25.1 17.2 63 57 8.8 47.9 0
01:24 1020 30.12 850 25.1 17.3 63.1 57 8.9 47.9 0
01:25 1020 30.12 850 25.1 17.3 63.1 58 8.9 48 0
01:26 1021 30.15 850 25.1 17.2 63 59 9.1 48.4 0
01:27 1021 30.15 850 25.1 17.2 62.9 59 9.1 48.5 0
01:28 1021 30.15 850 25.1 17.2 63 56 8.4 47.2 0
01:29 1021 30.15 850 25.1 17.5 63.5 56 8.7 47.6 0
01:30 1021 30.15 850 25.1 17.6 63.6 57 9.1 48.3 0
01:31 1021 30.15 850 25.1 17.5 63.6 56 8.7 47.6 0
01:32 1021 30.15 850 25.1 17.5 63.5 56 8.8 47.9 0
01:33 1021 30.15 850 25.1 17.4 63.3 59 9.4 48.9 0
01:34 1021 30.15 850 25.1 17.2 63 58 8.9 48 0
01:35 1021 30.15 850 25.1 17.1 62.8 57 8.7 47.6 0
01:36 1021 30.15 850 25.1 17.3 63.1 57 8.7 47.6 0
01:37 1021 30.15 850 25.1 17.4 63.4 58 9.2 48.5 0
01:38 1021 30.15 850 25.1 17.3 63.2 59 9.3 48.7 0
01:39 1021 30.15 850 25.1 17.2 62.9 59 9.2 48.6 0
01:40 1021 30.15 850 25.1 17.1 62.8 58 9 48.2 0
01:41 1021 30.15 850 25.1 17.1 62.9 58 9 48.2 0
01:42 1021 30.15 850 25.1 17.2 62.9 59 9.1 48.4 0
01:43 1021 30.15 850 25.1 17.2 62.9 59 9.2 48.6 0
01:44 1021 30.15 850 25.1 17.2 62.9 60 9.4 48.9 0
01:45 1021 30.15 850 25.1 17.1 62.7 60 9.5 49 0
01:46 1021 30.15 850 25.1 17 62.5 58 8.7 47.7 0
01:47 1021 30.15 850 25.1 17 62.7 57 8.6 47.5 0
01:48 1021 30.15 850 25.1 17.2 62.9 58 8.9 48 0
01:49 1021 30.15 850 25.1 17.2 63 58 9 48.1 0
01:50 1021 30.15 850 25.1 17.2 63 60 9.4 48.9 0
01:51 1021 30.15 850 25.1 17.2 62.9 60 9.4 48.9 0
01:52 1021 30.15 850 25.1 17.1 62.8 59 9.1 48.4 0
01:53 1021 30.15 850 25.1 17.1 62.7 60 9.3 48.8 0
01:54 1021 30.15 850 25.1 17.1 62.7 60 9.3 48.7 0
01:55 1021 30.15 850 25.1 17 62.6 60 9.3 48.7 0
01:56 1021 30.15 850 25.1 17 62.5 59 9 48.3 0
01:57 1021 30.15 850 25.1 17 62.6 60 9.2 48.5 0
01:58 1021 30.15 850 25.1 17 62.7 60 9.3 48.8 0
01:59 1021 30.15 850 25.1 16.9 62.4 61 9.5 49.1 0
02:00 1021 30.15 850 25.1 16.8 62.3 61 9.3 48.8 0
02:01 1021 30.15 850 25.1 16.8 62.2 62 9.5 49 0
02:02 1021 30.15 850 25.1 16.6 61.9 62 9.4 49 0
02:03 1021 30.15 850 25.1 16.6 61.8 63 9.5 49.2 0
02:04 1021 30.15 850 25.1 16.5 61.6 60 8.7 47.7 0
02:05 1021 30.15 850 25.1 16.6 61.9 61 9.2 48.6 0
02:06 1021 30.15 850 25.1 16.6 61.9 61 9.2 48.5 0
02:07 1021 30.15 850 25.1 16.6 61.8 61 9.1 48.3 0
02:08 1021 30.15 850 25.1 16.6 61.8 62 9.3 48.7 0
02:09 1021 30.15 850 25.1 16.5 61.6 63 9.4 49 0
02:10 1021 30.15 850 25.1 16.3 61.3 64 9.6 49.2 0
02:11 1021 30.15 850 25.1 16.1 60.9 63 9 48.2 0
02:12 1021 30.15 850 25.1 16 60.8 64 9.4 48.8 0
02:13 1021 30.15 850 25.1 15.8 60.5 65 9.4 49 0
02:14 1021 30.15 850 25.1 15.6 60.1 66 9.4 48.9 0
02:15 1021 30.15 850 25.1 15.5 59.8 67 9.5 49.1 0
02:16 1021 30.15 850 25.1 15.2 59.3 69 9.5 49.1 0
02:17 1021 30.15 850 25.1 14.9 58.8 70 9.4 49 0
02:18 1021 30.15 850 25.1 14.7 58.4 70 9.3 48.8 0
02:19 1021 30.15 850 25.1 14.6 58.3 70 9.4 48.9 0
02:20 1021 30.15 850 25.1 14.6 58.2 71 9.3 48.8 0
02:21 1021 30.15 850 25.1 14.5 58.1 71 9.3 48.7 0
02:22 1021 30.15 850 25.1 14.6 58.3 71 9.4 48.9 0
02:23 1021 30.15 850 25.1 14.6 58.3 71 9.5 49.1 0
02:24 1021 30.15 850 25.1 14.5 58.2 72 9.5 49.2 0
02:25 1021 30.15 850 25.1 14.4 57.9 72 9.4 48.9 0
02:26 1021 30.15 850 25.1 14.4 57.8 72 9.4 48.8 0
02:27 1021 30.15 850 25.1 14.3 57.7 72 9.4 49 0
02:28 1021 30.15 850 25.1 14.2 57.5 72 9.3 48.8 0
02:29 1021 30.15 850 25.1 14.1 57.4 72 9.3 48.7 0
02:30 1021 30.15 850 25.1 14.1 57.3 72 9.2 48.6 0
02:31 1021 30.15 850 25.1 14.1 57.3 73 9.2 48.6 0
02:32 1021 30.15 850 25.1 14 57.2 73 9.2 48.6 0
02:33 1021 30.15 850 25.1 13.9 57 73 9.3 48.7 0
02:34 1021 30.15 850 25.1 13.8 56.9 74 9.2 48.6 0
02:35 1021 30.15 850 25.1 13.7 56.7 74 9.3 48.7 0
02:36 1021 30.15 850 25.1 13.6 56.6 75 9.3 48.7 0
02:37 1021 30.15 850 25.1 13.7 56.6 74 9.2 48.6 0
02:38 1021 30.15 850 25.1 13.7 56.7 74 9.2 48.6 0
02:39 1021 30.15 850 25.1 13.8 56.8 75 9.4 48.9 0
02:40 1021 30.15 850 25.1 13.7 56.6 75 9.3 48.8 0
02:41 1021 30.15 850 25.1 13.5 56.2 75 9.2 48.6 0
02:42 1021 30.15 850 25.1 13.4 56.2 76 9.3 48.8 0
02:43 1021 30.15 850 25.1 13.3 56 76 9.3 48.7 0
02:44 1021 30.15 850 25.1 13.3 56 76 9.1 48.5 0
02:45 1021 30.15 850 25.1 13.5 56.2 75 9.1 48.4 0
02:46 1021 30.15 850 25.1 13.6 56.5 74 9.1 48.3 0
02:47 1021 30.15 850 25.1 13.6 56.6 74 9.1 48.4 0
02:48 1021 30.15 850 25.1 13.4 56.2 76 9.3 48.8 0
02:49 1021 30.15 850 25.1 13 55.3 79 9.4 48.9 0
02:50 1021 30.15 850 25.1 12.7 54.8 80 9.4 49 0
02:51 1021 30.15 850 25.1 12.5 54.6 81 9.4 49 0
02:52 1021 30.15 850 25.1 12.5 54.5 81 9.4 48.9 0
02:53 1021 30.15 850 25.1 12.5 54.5 81 9.4 48.9 0
02:54 1021 30.15 850 25.1 12.5 54.5 81 9.4 48.9 0
02:55 1021 30.15 850 25.1 12.5 54.6 81 9.3 48.8 0
02:56 1021 30.15 850 25.1 12.5 54.4 81 9.3 48.7 0
02:57 1021 30.15 850 25.1 12.4 54.3 81 9.3 48.7 0
02:58 1021 30.15 850 25.1 12.3 54.2 81 9.2 48.5 0
02:59 1021 30.15 850 25.1 12.2 54 82 9.2 48.6 0
03:00 1021 30.15 850 25.1 12.2 53.9 83 9.3 48.8 0
03:01 1021 30.15 850 25.1 12 53.7 83 9.3 48.7 0
03:02 1021 30.15 850 25.1 12 53.7 84 9.3 48.8 0
03:03 1021 30.15 851 25.13 12 53.6 83 9.3 48.8 0
03:04 1021 30.15 851 25.13 12 53.6 83 9.3 48.8 0
03:05 1021 30.15 851 25.13 12.1 53.7 83 9.3 48.7 0
03:06 1021 30.15 851 25.13 12.1 53.8 83 9.2 48.6 0
03:07 1021 30.15 851 25.13 12.2 53.9 83 9.3 48.8 0
03:08 1021 30.15 850 25.1 12.1 53.8 83 9.3 48.7 0
03:09 1021 30.15 851 25.13 12.1 53.8 82 9.2 48.6 0
03:10 1021 30.15 850 25.1 12.2 54 82 9.3 48.7 0
03:11 1021 30.15 850 25.1 12.1 53.8 82 9.2 48.6 0
03:12 1021 30.15 850 25.1 12 53.6 83 9.2 48.5 0
03:13 1021 30.15 850 25.1 11.9 53.5 83 9.1 48.4 0
03:14 1021 30.15 850 25.1 11.8 53.2 83 9.1 48.3 0
03:15 1021 30.15 850 25.1 11.7 53.1 84 9.1 48.3 0
03:16 1021 30.15 850 25.1 11.7 53 84 9 48.2 0
03:17 1021 30.15 850 25.1 11.5 52.8 84 9 48.2 0
03:18 1021 30.15 850 25.1 11.5 52.6 85 9.1 48.3 0
03:19 1021 30.15 851 25.13 11.4 52.5 85 9.1 48.3 0
03:20 1021 30.15 851 25.13 11.4 52.4 86 9.1 48.3 0
03:21 1021 30.15 850 25.1 11.3 52.3 86 9 48.3 0
03:22 1021 30.15 851 25.13 11.3 52.3 86 9 48.2 0
03:23 1021 30.15 851 25.13 11.3 52.3 86 9 48.1 0
03:24 1021 30.15 851 25.13 11.3 52.3 86 9 48.1 0
03:25 1021 30.15 851 25.13 11.3 52.3 86 9 48.1 0
03:26 1021 30.15 851 25.13 11.3 52.3 86 8.9 48.1 0
03:27 1021 30.15 851 25.13 11.3 52.3 85 8.9 48 0
03:28 1021 30.15 851 25.13 11.2 52.2 85 8.9 48 0
03:29 1021 30.15 851 25.13 11.1 52 86 8.9 48 0
03:30 1021 30.15 851 25.13 11.1 51.9 86 8.8 47.8 0
03:31 1021 30.15 851 25.13 11 51.8 86 8.8 47.8 0
03:32 1021 30.15 851 25.13 11 51.7 87 8.9 47.9 0
03:33 1021 30.15 851 25.13 10.9 51.7 87 8.8 47.9 0
03:34 1021 30.15 851 25.13 10.9 51.6 87 8.8 47.9 0
03:35 1022 30.18 851 25.13 11 51.7 87 8.8 47.9 0
03:36 1021 30.15 851 25.13 10.9 51.6 87 8.8 47.9 0
03:37 1022 30.18 851 25.13 10.9 51.6 87 8.9 47.9 0
03:38 1021 30.15 851 25.13 10.9 51.7 87 8.9 48.1 0
03:39 1022 30.18 851 25.13 11 51.7 88 9 48.2 0
03:40 1022 30.18 851 25.13 11.1 52 88 9.2 48.5 0
03:41 1022 30.18 851 25.13 11.2 52.2 87 9.2 48.6 0
03:42 1022 30.18 851 25.13 11.3 52.3 87 9.1 48.4 0
03:43 1022 30.18 851 25.13 11.2 52.2 86 9 48.2 0
03:44 1022 30.18 851 25.13 11.2 52.2 86 9 48.2 0
03:45 1022 30.18 851 25.13 11.2 52.1 86 8.9 48.1 0
03:46 1022 30.18 851 25.13 11.1 52 86 8.9 47.9 0
03:47 1022 30.18 851 25.13 11.1 51.9 85 8.7 47.7 0
03:48 1022 30.18 851 25.13 11.1 51.9 85 8.7 47.7 0
03:49 1022 30.18 851 25.13 11.1 52 85 8.8 47.8 0
03:50 1022 30.18 851 25.13 11.1 52 85 8.7 47.7 0
03:51 1022 30.18 851 25.13 11.2 52.2 84 8.7 47.6 0
03:52 1022 30.18 851 25.13 11.2 52.2 85 8.7 47.7 0
03:53 1022 30.18 851 25.13 11.2 52.1 85 8.7 47.7 0
03:54 1022 30.18 851 25.13 11.2 52.1 85 8.7 47.7 0
03:55 1022 30.18 851 25.13 11.2 52.2 84 8.7 47.7 0
03:56 1022 30.18 851 25.13 11.3 52.4 84 8.6 47.6 0
03:57 1022 30.18 851 25.13 11.4 52.4 83 8.7 47.6 0
03:58 1022 30.18 851 25.13 11.4 52.4 83 8.7 47.6 0
03:59 1022 30.18 851 25.13 11.4 52.6 83 8.6 47.5 0
04:00 1022 30.18 851 25.13 11.6 52.8 82 8.6 47.5 0
04:01 1022 30.18 851 25.13 11.6 52.9 82 8.6 47.5 0
04:02 1022 30.18 851 25.13 11.6 52.9 82 8.6 47.5 0
04:03 1022 30.18 851 25.13 11.6 52.9 82 8.7 47.6 0
04:04 1022 30.18 851 25.13 11.6 52.9 82 8.7 47.6 0
04:05 1022 30.18 851 25.13 11.5 52.7 82 8.6 47.5 0
04:06 1022 30.18 851 25.13 11.6 52.8 82 8.6 47.4 0
04:07 1022 30.18 851 25.13 11.4 52.6 83 8.7 47.6 0
04:08 1022 30.18 851 25.13 11.4 52.5 82 8.5 47.3 0
04:09 1022 30.18 851 25.13 11.4 52.4 82 8.5 47.3 0
04:10 1022 30.18 851 25.13 11.3 52.3 83 8.5 47.3 0
04:11 1022 30.18 851 25.13 11.2 52.1 83 8.4 47.2 0
04:12 1022 30.18 851 25.13 11.1 52.1 83 8.4 47.1 0
04:13 1022 30.18 851 25.13 11.1 52.1 83 8.4 47.1 0
04:14 1022 30.18 851 25.13 11.2 52.1 83 8.4 47.1 0
04:15 1022 30.18 851 25.13 11.1 52 83 8.4 47.1 0
04:16 1022 30.18 851 25.13 11.1 51.9 84 8.4 47.1 0
04:17 1022 30.18 851 25.13 11 51.8 84 8.4 47.1 0
04:18 1022 30.18 851 25.13 10.9 51.7 84 8.3 47 0
04:19 1022 30.18 851 25.13 10.8 51.5 84 8.3 47 0
04:20 1022 30.18 851 25.13 10.7 51.2 85 8.4 47 0
04:21 1022 30.18 851 25.13 10.6 51 86 8.4 47.1 0
04:22 1022 30.18 851 25.13 10.5 50.8 87 8.4 47 0
04:23 1022 30.18 851 25.13 10.4 50.7 87 8.4 47.1 0
04:24 1022 30.18 851 25.13 10.3 50.6 88 8.4 47.1 0
04:25 1022 30.18 851 25.13 10.3 50.5 88 8.4 47.1 0
04:26 1022 30.18 851 25.13 10.2 50.4 88 8.4 47.1 0
04:27 1022 30.18 851 25.13 10.2 50.3 88 8.3 47 0
04:28 1022 30.18 851 25.13 10.2 50.3 88 8.4 47.1 0
04:29 1022 30.18 851 25.13 10.2 50.4 88 8.3 47 0
04:30 1022 30.18 851 25.13 10.2 50.4 89 8.4 47.2 0
04:31 1022 30.18 851 25.13 10.4 50.7 89 8.7 47.6 0
04:32 1022 30.18 851 25.13 10.8 51.4 88 8.8 47.9 0
04:33 1022 30.18 851 25.13 11.1 51.9 87 8.9 48 0
04:34 1022 30.18 851 25.13 11.3 52.3 86 8.9 48.1 0
04:35 1022 30.18 851 25.13 11.5 52.6 85 9 48.2 0
04:36 1022 30.18 851 25.13 11.6 52.9 84 9 48.2 0
04:37 1022 30.18 851 25.13 11.8 53.2 83 9 48.3 0
04:38 1022 30.18 851 25.13 11.8 53.2 83 9 48.2 0
04:39 1022 30.18 851 25.13 11.9 53.3 83 9 48.3 0
04:40 1022 30.18 851 25.13 11.8 53.3 83 9 48.2 0
04:41 1022 30.18 851 25.13 11.8 53.3 83 9 48.1 0
04:42 1022 30.18 851 25.13 11.8 53.2 83 8.9 48.1 0
04:43 1022 30.18 851 25.13 11.8 53.2 83 9 48.2 0
04:44 1022 30.18 851 25.13 11.7 53.1 83 9 48.1 0
04:45 1022 30.18 851 25.13 11.7 53 83 9 48.1 0
04:46 1022 30.18 851 25.13 11.7 53 83 9 48.2 0
04:47 1022 30.18 851 25.13 11.7 53 84 9 48.2 0
04:48 1022 30.18 851 25.13 11.7 53 84 9 48.2 0
04:49 1022 30.18 851 25.13 11.6 52.9 83 8.9 48.1 0
04:50 1022 30.18 851 25.13 11.7 53 84 9 48.2 0
04:51 1022 30.18 851 25.13 11.7 53 83 9 48.1 0
04:52 1022 30.18 851 25.13 11.7 53 83 9 48.1 0
04:53 1022 30.18 851 25.13 11.7 53 83 8.9 48.1 0
04:54 1022 30.18 851 25.13 11.7 53 83 9 48.1 0
04:55 1022 30.18 851 25.13 11.6 52.9 84 9 48.2 0
04:56 1022 30.18 851 25.13 11.6 52.9 84 9 48.2 0
04:57 1022 30.18 851 25.13 11.5 52.8 84 8.9 48.1 0
04:58 1022 30.18 851 25.13 11.5 52.8 84 9 48.1 0
04:59 1022 30.18 851 25.13 11.5 52.8 84 8.9 48.1 0
05:00 1022 30.18 851 25.13 11.5 52.7 84 8.9 48.1 0
05:01 1022 30.18 851 25.13 11.5 52.6 84 8.9 48.1 0
05:02 1022 30.18 851 25.13 11.5 52.7 84 8.9 48 0
05:03 1022 30.18 851 25.13 11.4 52.5 84 8.9 48 0
05:04 1022 30.18 851 25.13 11.3 52.4 84 8.8 47.9 0
05:05 1022 30.18 851 25.13 11.4 52.5 84 8.8 47.9 0
05:06 1022 30.18 851 25.13 11.5 52.8 84 8.9 48 0
05:07 1022 30.18 851 25.13 11.6 52.9 83 8.8 47.9 0
05:08 1022 30.18 851 25.13 11.7 53 83 8.9 48 0
05:09 1022 30.18 851 25.13 11.7 53 83 8.8 47.9 0
05:10 1022 30.18 851 25.13 11.7 53 83 8.8 47.9 0
05:11 1022 30.18 851 25.13 11.7 53.1 82 8.8 47.9 0
05:12 1022 30.18 851 25.13 11.7 53.1 82 8.8 47.9 0
05:13 1022 30.18 851 25.13 11.7 53.1 82 8.8 47.8 0
05:14 1022 30.18 851 25.13 11.7 53 82 8.8 47.8 0
05:15 1022 30.18 851 25.13 11.7 53 82 8.8 47.8 0
05:16 1022 30.18 851 25.13 11.7 53 82 8.7 47.7 0
05:17 1022 30.18 851 25.13 11.6 52.9 82 8.7 47.7 0
05:18 1022 30.18 851 25.13 11.5 52.7 82 8.7 47.6 0
05:19 1022 30.18 851 25.13 11.5 52.6 83 8.6 47.5 0
05:20 1022 30.18 851 25.13 11.4 52.5 83 8.6 47.4 0
05:21 1022 30.18 851 25.13 11.3 52.4 83 8.5 47.3 0
05:22 1022 30.18 851 25.13 11.3 52.3 83 8.5 47.3 0
05:23 1022 30.18 851 25.13 11.2 52.2 83 8.5 47.2 0
05:24 1022 30.18 851 25.13 11.3 52.3 83 8.5 47.3 0
05:25 1022 30.18 851 25.13 11.3 52.3 83 8.5 47.3 0
05:26 1022 30.18 851 25.13 11.3 52.4 83 8.5 47.3 0
05:27 1022 30.18 851 25.13 11.3 52.3 83 8.5 47.2 0
05:28 1022 30.18 851 25.13 11.2 52.1 83 8.4 47.2 0
05:29 1022 30.18 851 25.13 11.1 52 84 8.4 47.2 0
05:30 1022 30.18 851 25.13 11 51.9 84 8.4 47.2 0
05:31 1022 30.18 851 25.13 11 51.7 84 8.4 47.2 0
05:32 1022 30.18 851 25.13 11 51.8 84 8.5 47.3 0
05:33 1022 30.18 851 25.13 11 51.8 84 8.5 47.3 0
05:34 1022 30.18 851 25.13 10.9 51.7 85 8.4 47.2 0
05:35 1022 30.18 852 25.16 10.9 51.7 85 8.5 47.2 0
05:36 1022 30.18 852 25.16 10.9 51.6 85 8.4 47.2 0
05:37 1022 30.18 852 25.16 10.8 51.5 85 8.4 47.2 0
05:38 1022 30.18 852 25.16 10.8 51.5 85 8.4 47.1 0
05:39 1022 30.18 852 25.16 10.8 51.5 85 8.4 47.1 0
05:40 1022 30.18 852 25.16 10.9 51.6 84 8.4 47 0
05:41 1022 30.18 852 25.16 11.1 51.9 84 8.4 47.1 0
05:42 1022 30.18 852 25.16 11.1 52.1 83 8.5 47.2 0
05:43 1022 30.18 852 25.16 11.2 52.1 83 8.5 47.2 0
05:44 1022 30.18 852 25.16 11.2 52.2 83 8.5 47.3 0
05:45 1022 30.18 852 25.16 11.2 52.2 83 8.5 47.3 0
05:46 1022 30.18 852 25.16 11.2 52.2 83 8.5 47.2 0
05:47 1022 30.18 852 25.16 11.2 52.1 83 8.4 47.2 0
05:48 1022 30.18 852 25.16 11.1 52 83 8.4 47 0
05:49 1022 30.18 852 25.16 11.1 51.9 83 8.4 47.1 0
05:50 1022 30.18 852 25.16 10.9 51.7 84 8.4 47.1 0
05:51 1022 30.18 852 25.16 10.8 51.4 84 8.3 46.9 0
05:52 1023 30.21 852 25.16 10.7 51.3 85 8.3 46.9 0
05:53 1023 30.21 852 25.16 10.6 51.2 84 8.1 46.7 0
05:54 1023 30.21 852 25.16 10.5 51 85 8.1 46.6 0
05:55 1023 30.21 852 25.16 10.4 50.7 86 8.1 46.6 0
05:56 1023 30.21 852 25.16 10.3 50.5 86 8.1 46.6 0
05:57 1023 30.21 852 25.16 10.3 50.5 87 8.2 46.7 0
05:58 1023 30.21 852 25.16 10.3 50.6 86 8.2 46.7 0
05:59 1023 30.21 852 25.16 10.4 50.8 86 8.2 46.8 0
06:00 1023 30.21 852 25.16 10.4 50.8 86 8.2 46.7 0
06:01 1023 30.21 852 25.16 10.5 50.9 86 8.2 46.8 0
06:02 1023 30.21 852 25.16 10.5 51 86 8.3 46.9 0
06:03 1023 30.21 852 25.16 10.6 51 85 8.3 46.9 0
06:04 1023 30.21 852 25.16 10.6 51.1 85 8.3 46.9 0
06:05 1023 30.21 852 25.16 10.6 51.2 85 8.3 46.9 0
06:06 1023 30.21 852 25.16 10.7 51.2 85 8.2 46.8 0
06:07 1023 30.21 852 25.16 10.6 51.1 85 8.2 46.7 0
06:08 1023 30.21 852 25.16 10.6 51.1 85 8.2 46.8 0
06:09 1023 30.21 852 25.16 10.5 50.9 85 8.2 46.7 0
06:10 1023 30.21 852 25.16 10.5 50.8 85 8.1 46.6 0
06:11 1023 30.21 852 25.16 10.4 50.7 85 8.1 46.5 0
06:12 1023 30.21 852 25.16 10.4 50.7 85 8 46.5 0
06:13 1023 30.21 852 25.16 10.4 50.6 85 8 46.4 0
06:14 1023 30.21 852 25.16 10.3 50.5 86 8 46.5 0
06:15 1023 30.21 852 25.16 10.3 50.5 86 8 46.5 0
06:16 1023 30.21 852 25.16 10.2 50.4 86 8 46.4 0
06:17 1023 30.21 852 25.16 10.2 50.4 86 8 46.4 0
06:18 1023 30.21 852 25.16 10.2 50.4 86 8 46.4 0
06:19 1023 30.21 852 25.16 10.2 50.4 86 7.9 46.2 0
06:20 1023 30.21 852 25.16 10.1 50.2 87 8 46.4 0
06:21 1023 30.21 852 25.16 10 50 87 8 46.4 0
06:22 1023 30.21 852 25.16 10 50 87 8 46.4 0
06:23 1023 30.21 852 25.16 10.1 50.1 87 8 46.4 0
06:24 1023 30.21 852 25.16 10 50.1 87 8 46.4 0
06:25 1023 30.21 852 25.16 10.1 50.1 87 8 46.3 0
06:26 1023 30.21 852 25.16 10.1 50.2 87 8 46.4 0
06:27 1023 30.21 852 25.16 10.1 50.1 87 8 46.3 0
06:28 1023 30.21 852 25.16 10.1 50.1 87 8 46.4 0
06:29 1023 30.21 852 25.16 10 50.1 87 8.1 46.5 0
06:30 1023 30.21 852 25.16 10.1 50.1 87 8.1 46.5 0
06:31 1023 30.21 852 25.16 10.2 50.3 87 8.1 46.5 0
06:32 1023 30.21 852 25.16 10.2 50.4 87 8.1 46.6 0
06:33 1023 30.21 852 25.16 10.3 50.6 86 8.1 46.6 0
06:34 1023 30.21 852 25.16 10.4 50.8 86 8.2 46.7 0
06:35 1023 30.21 852 25.16 10.4 50.8 86 8.2 46.7 0
06:36 1023 30.21 852 25.16 10.5 50.8 86 8.2 46.8 0
06:37 1023 30.21 852 25.16 10.5 50.9 86 8.3 46.9 0
06:38 1023 30.21 852 25.16 10.5 50.9 86 8.2 46.8 0
06:39 1023 30.21 852 25.16 10.6 51.1 85 8.2 46.8 0
06:40 1023 30.21 852 25.16 10.7 51.3 85 8.4 47 0
06:41 1023 30.21 852 25.16 10.7 51.3 85 8.4 47.1 0
06:42 1023 30.21 852 25.16 10.8 51.4 85 8.4 47.1 0
06:43 1023 30.21 852 25.16 10.8 51.4 85 8.4 47.1 0
06:44 1023 30.21 852 25.16 10.8 51.5 86 8.5 47.3 0
06:45 1023 30.21 852 25.16 10.8 51.4 85 8.4 47.1 0
06:46 1023 30.21 852 25.16 10.8 51.4 86 8.6 47.4 0
06:47 1023 30.21 852 25.16 10.8 51.5 86 8.7 47.6 0
06:48 1023 30.21 852 25.16 10.9 51.6 86 8.6 47.5 0
06:49 1023 30.21 852 25.16 11 51.8 86 8.7 47.6 0
06:50 1023 30.21 852 25.16 11.2 52.2 84 8.6 47.5 0
06:51 1023 30.21 852 25.16 11.5 52.6 83 8.7 47.7 0
06:52 1023 30.21 852 25.16 11.6 52.9 83 8.9 48 0
06:53 1023 30.21 852 25.16 11.8 53.2 82 8.8 47.8 0
06:54 1023 30.21 852 25.16 11.9 53.4 82 9 48.1 0
06:55 1023 30.21 852 25.16 12 53.6 82 9 48.3 0
06:56 1023 30.21 852 25.16 12 53.6 82 9.1 48.3 0
06:57 1023 30.21 852 25.16 12 53.6 82 9 48.3 0
06:58 1023 30.21 852 25.16 12 53.6 82 9.1 48.3 0
06:59 1023 30.21 852 25.16 12 53.6 81 8.9 48.1 0
07:00 1023 30.21 852 25.16 12 53.6 82 9 48.1 0
07:01 1023 30.21 852 25.16 12.1 53.7 82 9 48.2 0
07:02 1023 30.21 852 25.16 12.1 53.8 81 9 48.2 0
07:03 1023 30.21 852 25.16 12.2 54 82 9.2 48.5 0
07:04 1023 30.21 852 25.16 12.3 54.1 81 9.1 48.3 0
07:05 1023 30.21 852 25.16 12.3 54.1 81 9.2 48.6 0
07:06 1023 30.21 852 25.16 12.4 54.3 81 9.2 48.5 0
07:07 1023 30.21 852 25.16 12.5 54.5 80 9.2 48.6 0
07:08 1023 30.21 852 25.16 12.6 54.6 80 9.2 48.5 0
07:09 1023 30.21 852 25.16 12.6 54.7 81 9.4 48.9 0
07:10 1023 30.21 852 25.16 12.6 54.7 81 9.5 49 0
07:11 1023 30.21 852 25.16 12.6 54.7 81 9.5 49.1 0
07:12 1023 30.21 852 25.16 12.6 54.7 82 9.6 49.4 0
07:13 1023 30.21 852 25.16 12.7 54.8 82 9.6 49.3 0
07:14 1023 30.21 852 25.16 12.7 54.9 81 9.6 49.2 0
07:15 1023 30.21 852 25.16 12.8 55 82 9.7 49.5 0
07:16 1023 30.21 852 25.16 12.9 55.1 81 9.7 49.5 0
07:17 1023 30.21 852 25.16 12.9 55.2 81 9.7 49.4 0
07:18 1023 30.21 852 25.16 13 55.3 81 9.8 49.7 0
07:19 1023 30.21 852 25.16 13 55.4 82 10 50 0
07:20 1023 30.21 852 25.16 13 55.5 81 9.9 49.9 0
07:21 1023 30.21 852 25.16 13.1 55.6 81 9.9 49.8 0
07:22 1023 30.21 852 25.16 13.2 55.8 79 9.7 49.5 0
07:23 1023 30.21 852 25.16 13.3 56 79 9.8 49.7 0
07:24 1023 30.21 852 25.16 13.4 56.2 79 9.9 49.8 0
07:25 1023 30.21 853 25.19 13.6 56.4 78 9.9 49.8 0
07:26 1023 30.21 852 25.16 13.7 56.6 79 10.2 50.4 0
07:27 1023 30.21 853 25.19 13.7 56.7 78 10.1 50.1 0
07:28 1023 30.21 852 25.16 13.8 56.9 79 10.2 50.4 0
07:29 1023 30.21 852 25.16 13.9 57.1 79 10.5 50.8 0
07:30 1023 30.21 852 25.16 14 57.1 79 10.3 50.6 0
07:31 1023 30.21 852 25.16 14 57.2 77 10.1 50.2 0
07:32 1023 30.21 852 25.16 14.1 57.4 77 10.2 50.4 0
07:33 1023 30.21 852 25.16 14.2 57.5 76 10.1 50.2 0
07:34 1023 30.21 852 25.16 14.3 57.7 75 9.8 49.7 0
07:35 1023 30.21 853 25.19 14.4 57.9 75 10.1 50.2 0
07:36 1023 30.21 853 25.19 14.5 58.1 74 10 50.1 0
07:37 1023 30.21 853 25.19 14.6 58.2 76 10.4 50.8 0
07:38 1023 30.21 853 25.19 14.7 58.5 76 10.5 50.8 0
07:39 1023 30.21 853 25.19 14.8 58.6 74 10.2 50.3 0
07:40 1023 30.21 853 25.19 14.8 58.7 74 10.3 50.5 0
07:41 1023 30.21 853 25.19 14.9 58.8 74 10.3 50.5 0
07:42 1023 30.21 853 25.19 15 58.9 75 10.5 51 0
07:43 1023 30.21 853 25.19 15 59 75 10.7 51.3 0
07:44 1023 30.21 853 25.19 15.1 59.1 73 10.3 50.5 0
07:45 1023 30.21 853 25.19 15.1 59.2 71 10 49.9 0
07:46 1023 30.21 853 25.19 15.1 59.2 72 10.1 50.3 0
07:47 1023 30.21 853 25.19 15.2 59.3 73 10.4 50.6 0
07:48 1023 30.21 853 25.19 15.2 59.4 72 10.3 50.5 0
07:49 1023 30.21 853 25.19 15.3 59.5 73 10.6 51 0
07:50 1023 30.21 853 25.19 15.3 59.5 73 10.5 50.9 0
07:51 1023 30.21 853 25.19 15.3 59.5 70 9.9 49.8 0
07:52 1023 30.21 853 25.19 15.3 59.6 71 10.2 50.4 0
07:53 1023 30.21 853 25.19 15.4 59.6 69 9.8 49.7 0
07:54 1023 30.21 853 25.19 15.4 59.7 71 10.1 50.2 0
07:55 1023 30.21 853 25.19 15.4 59.7 70 9.9 49.9 0
07:56 1023 30.21 853 25.19 15.5 59.8 70 10.1 50.2 0
07:57 1023 30.21 853 25.19 15.5 59.8 70 10.2 50.3 0
07:58 1024 30.24 853 25.19 15.5 60 68 9.8 49.7 0
07:59 1024 30.24 853 25.19 15.5 59.9 69 9.9 49.9 0
08:00 1024 30.24 853 25.19 15.5 59.9 70 10.2 50.4 0
08:01 1024 30.24 853 25.19 15.5 59.9 68 9.8 49.6 0
08:02 1024 30.24 853 25.19 15.5 60 71 10.3 50.6 0
08:03 1024 30.24 853 25.19 15.6 60.1 72 10.7 51.3 0
08:04 1024 30.24 853 25.19 15.7 60.2 69 10 50.1 0
08:05 1024 30.24 853 25.19 15.7 60.2 69 10 50.1 0
08:06 1024 30.24 853 25.19 15.7 60.3 69 10 50 0
08:07 1024 30.24 853 25.19 15.7 60.2 72 10.8 51.4 0
08:08 1024 30.24 853 25.19 15.7 60.3 70 10.4 50.7 0
08:09 1024 30.24 853 25.19 15.7 60.3 72 10.7 51.3 0
08:10 1024 30.24 853 25.19 15.7 60.3 70 10.3 50.6 0
08:11 1024 30.24 853 25.19 15.7 60.3 70 10.3 50.6 0
08:12 1024 30.24 853 25.19 15.7 60.3 72 10.7 51.3 0
08:13 1024 30.24 853 25.19 15.8 60.4 70 10.3 50.6 0
08:14 1024 30.24 853 25.19 15.8 60.5 69 10.2 50.4 0
08:15 1024 30.24 853 25.19 15.9 60.5 68 10 49.9 0
08:16 1024 30.24 853 25.19 15.9 60.5 70 10.4 50.7 0
08:17 1024 30.24 853 25.19 15.9 60.5 72 10.8 51.4 0
08:18 1024 30.24 853 25.19 15.9 60.6 67 10 49.9 0
08:19 1024 30.24 853 25.19 15.9 60.6 73 11 51.8 0
08:20 1024 30.24 853 25.19 15.9 60.6 70 10.6 51 0
08:21 1024 30.24 853 25.19 15.9 60.6 71 10.6 51.1 0
08:22 1024 30.24 853 25.19 15.9 60.7 68 10.2 50.4 0
08:23 1024 30.24 853 25.19 16 60.7 70 10.5 50.8 0
08:24 1024 30.24 853 25.19 16 60.7 70 10.5 50.9 0
08:25 1024 30.24 853 25.19 16 60.8 70 10.6 51.1 0
08:26 1024 30.24 853 25.19 16.1 60.9 71 10.8 51.4 0
08:27 1024 30.24 853 25.19 16 60.8 69 10.5 50.8 0
08:28 1024 30.24 853 25.19 16 60.8 69 10.4 50.8 0
08:29 1024 30.24 853 25.19 16 60.8 71 10.8 51.5 0
08:30 1024 30.24 853 25.19 16.1 61 70 10.7 51.2 0
08:31 1024 30.24 853 25.19 16.1 61 71 11 51.8 0
08:32 1024 30.24 853 25.19 16 60.9 72 11 51.9 0
08:33 1024 30.24 853 25.19 16.1 60.9 71 10.9 51.6 0
08:34 1024 30.24 853 25.19 16.1 60.9 69 10.5 50.9 0
08:35 1024 30.24 853 25.19 16.1 61 70 10.7 51.3 0
08:36 1024 30.24 853 25.19 16.2 61.1 71 11.1 51.9 0
08:37 1024 30.24 853 25.19 16.3 61.3 70 10.8 51.4 0
08:38 1024 30.24 853 25.19 16.3 61.3 71 11.1 52 0
08:39 1024 30.24 853 25.19 16.3 61.4 70 10.8 51.4 0
08:40 1024 30.24 853 25.19 16.3 61.4 73 11.4 52.6 0
08:41 1024 30.24 853 25.19 16.4 61.5 71 11.1 52 0
08:42 1024 30.24 853 25.19 16.5 61.6 71 11.3 52.3 0
08:43 1024 30.24 853 25.19 16.5 61.8 71 11.4 52.5 0
08:44 1024 30.24 853 25.19 16.6 61.9 71 11.4 52.6 0
08:45 1024 30.24 853 25.19 16.6 62 74 12.1 53.8 0
08:46 1024 30.24 853 25.19 16.7 62.1 71 11.5 52.8 0
08:47 1024 30.24 853 25.19 16.8 62.2 69 11 51.9 0
08:48 1024 30.24 853 25.19 16.8 62.2 68 10.8 51.5 0
08:49 1024 30.24 853 25.19 16.8 62.3 70 11.3 52.3 0
08:50 1024 30.24 853 25.19 16.9 62.4 71 11.7 53.1 0
08:51 1024 30.24 853 25.19 16.9 62.4 72 11.8 53.3 0
08:52 1024 30.24 853 25.19 17 62.5 69 11.2 52.2 0
08:53 1024 30.24 853 25.19 17 62.5 67 10.8 51.5 0
08:54 1024 30.24 853 25.19 17 62.5 68 11 51.8 0
08:55 1024 30.24 853 25.19 17 62.6 67 10.9 51.6 0
08:56 1024 30.24 853 25.19 17 62.7 71 11.8 53.3 0
08:57 1024 30.24 853 25.19 17 62.7 70 11.5 52.8 0
08:58 1024 30.24 853 25.19 17 62.7 67 11 51.8 0
08:59 1024 30.24 853 25.19 17 62.6 69 11.3 52.3 0
09:00 1024 30.24 853 25.19 17 62.6 69 11.3 52.3 0
09:01 1024 30.24 853 25.19 17 62.6 69 11.3 52.4 0
09:02 1024 30.24 853 25.19 17.1 62.7 68 11.3 52.3 0
09:03 1024 30.24 853 25.19 17.1 62.8 69 11.4 52.5 0
09:04 1024 30.24 853 25.19 17.1 62.9 67 11 51.7 0
09:05 1024 30.24 853 25.19 17.2 62.9 69 11.6 52.8 0
09:06 1024 30.24 853 25.19 17.2 62.9 71 11.9 53.5 0
09:07 1024 30.24 853 25.19 17.3 63.1 71 12 53.6 0
09:08 1024 30.24 853 25.19 17.3 63.1 66 11 51.8 0
09:09 1024 30.24 853 25.19 17.3 63.1 72 12.3 54.2 0
09:10 1024 30.24 853 25.19 17.4 63.3 69 11.8 53.2 0
09:11 1024 30.24 853 25.19 17.4 63.4 70 11.9 53.4 0
09:12 1024 30.24 853 25.19 17.5 63.4 67 11.5 52.6 0
09:13 1024 30.24 853 25.19 17.5 63.4 71 12.3 54.1 0
09:14 1024 30.24 853 25.19 17.5 63.5 72 12.4 54.3 0
09:15 1024 30.24 853 25.19 17.5 63.5 69 11.8 53.2 0
09:16 1024 30.24 853 25.19 17.4 63.3 70 11.9 53.5 0
09:17 1024 30.24 853 25.19 17.4 63.2 72 12.4 54.3 0
09:18 1024 30.24 853 25.19 17.4 63.3 70 12 53.5 0
09:19 1024 30.24 853 25.19 17.4 63.2 73 12.5 54.5 0
09:20 1024 30.24 853 25.19 17.3 63.2 68 11.5 52.7 0
09:21 1024 30.24 853 25.19 17.3 63.2 69 11.8 53.2 0
09:22 1024 30.24 853 25.19 17.4 63.3 72 12.3 54.2 0
09:23 1024 30.24 853 25.19 17.4 63.4 71 12.3 54.1 0
09:24 1024 30.24 853 25.19 17.5 63.5 68 11.5 52.7 0
09:25 1024 30.24 853 25.19 17.5 63.4 70 12 53.5 0
09:26 1024 30.24 853 25.19 17.4 63.4 72 12.5 54.4 0
09:27 1024 30.24 853 25.19 17.4 63.3 69 11.7 53 0
09:28 1024 30.24 853 25.19 17.4 63.3 74 12.8 55 0
09:29 1024 30.24 853 25.19 17.4 63.4 70 12 53.5 0
09:30 1024 30.24 853 25.19 17.5 63.5 70 12 53.6 0
09:31 1024 30.24 853 25.19 17.5 63.5 70 12 53.5 0
09:32 1024 30.24 853 25.19 17.5 63.5 73 12.6 54.8 0
09:33 1024 30.24 853 25.19 17.6 63.7 64 10.9 51.6 0
09:34 1024 30.24 853 25.19 17.7 63.8 66 11.4 52.5 0
09:35 1024 30.24 853 25.19 17.8 64 69 12.1 53.7 0
09:36 1024 30.24 853 25.19 17.8 64 67 11.7 53.1 0
09:37 1024 30.24 853 25.19 17.7 63.9 65 11.2 52.2 0
09:38 1024 30.24 853 25.19 17.8 64 62 10.6 51.1 0
09:39 1024 30.24 853 25.19 17.8 64 64 11 51.7 0
09:40 1024 30.24 853 25.19 17.9 64.3 66 11.6 52.9 0
09:41 1024 30.24 853 25.19 18 64.4 63 10.9 51.6 0
09:42 1024 30.24 853 25.19 18 64.4 63 10.8 51.5 0
09:43 1024 30.24 853 25.19 18 64.4 66 11.7 53.1 0
09:44 1024 30.24 853 25.19 18 64.5 65 11.4 52.5 0
09:45 1024 30.24 853 25.19 18.1 64.6 63 11 51.8 0
09:46 1024 30.24 853 25.19 18.1 64.5 66 11.7 53.1 0
09:47 1024 30.24 853 25.19 18 64.4 61 10.5 50.8 0
09:48 1024 30.24 853 25.19 18 64.5 62 10.6 51.1 0
09:49 1024 30.24 853 25.19 18.1 64.5 66 11.8 53.2 0
09:50 1024 30.24 853 25.19 18.1 64.6 62 10.8 51.5 0
09:51 1024 30.24 853 25.19 18.1 64.6 65 11.6 52.8 0
09:52 1024 30.24 853 25.19 18.2 64.8 61 10.7 51.2 0
09:53 1024 30.24 853 25.19 18.3 64.9 60 10.5 51 0
09:54 1024 30.24 853 25.19 18.3 64.9 61 10.7 51.2 0
09:55 1024 30.24 853 25.19 18.3 65 58 10 50 0
09:56 1024 30.24 853 25.19 18.4 65 65 11.8 53.2 0
09:57 1024 30.24 853 25.19 18.4 65.1 62 11.1 51.9 0
09:58 1024 30.24 853 25.19 18.4 65.2 63 11.4 52.5 0
09:59 1024 30.24 853 25.19 18.5 65.2 62 11.2 52.1 0
10:00 1024 30.24 853 25.19 18.4 65.2 57 9.9 49.8 0
10:01 1024 30.24 853 25.19 18.4 65.1 62 11 51.8 0
10:02 1024 30.24 853 25.19 18.5 65.3 61 10.9 51.6 0
10:03 1024 30.24 853 25.19 18.6 65.5 56 9.7 49.5 0
10:04 1024 30.24 853 25.19 18.6 65.5 58 10.2 50.3 0
10:05 1024 30.24 853 25.19 18.7 65.7 54 9.4 48.9 0
10:06 1024 30.24 853 25.19 18.8 65.8 59 10.7 51.2 0
10:07 1024 30.24 853 25.19 18.8 65.8 58 10.4 50.7 0
10:08 1024 30.24 853 25.19 18.8 65.9 58 10.5 50.8 0
10:09 1024 30.24 853 25.19 18.9 66 56 10.1 50.1 0
10:10 1024 30.24 853 25.19 18.9 66.1 58 10.5 50.9 0
10:11 1024 30.24 853 25.19 19 66.1 55 9.8 49.6 0
10:12 1024 30.24 853 25.19 18.9 66 56 10.1 50.1 0
10:13 1024 30.24 853 25.19 18.9 66 54 9.6 49.3 0
10:14 1024 30.24 853 25.19 18.9 66.1 60 11 51.8 0
10:15 1024 30.24 853 25.19 19 66.2 60 11.1 52 0
10:16 1024 30.24 853 25.19 19.1 66.4 55 10.1 50.1 0
10:17 1024 30.24 853 25.19 19.2 66.5 59 11.2 52.1 0
10:18 1024 30.24 853 25.19 19.2 66.5 53 9.4 48.9 0
10:19 1024 30.24 853 25.19 19.1 66.3 56 10.2 50.3 0
10:20 1024 30.24 853 25.19 19 66.2 55 9.9 49.9 0
10:21 1024 30.24 853 25.19 18.9 66.1 56 10.1 50.1 0
10:22 1024 30.24 853 25.19 18.9 66 54 9.6 49.2 0
10:23 1024 30.24 853 25.19 18.9 66 56 10.1 50.2 0
10:24 1024 30.24 853 25.19 19 66.1 57 10.5 50.8 0
10:25 1024 30.24 853 25.19 19.1 66.3 60 11.2 52.2 0
10:26 1024 30.24 853 25.19 19.2 66.5 60 11.4 52.5 0
10:27 1024 30.24 853 25.19 19.2 66.5 56 10.3 50.5 0
10:28 1024 30.24 853 25.19 19.1 66.4 65 12.4 54.3 0
10:29 1024 30.24 853 25.19 19.2 66.5 54 9.8 49.7 0
10:30 1024 30.24 853 25.19 19.1 66.3 54 9.7 49.4 0
10:31 1024 30.24 853 25.19 18.9 66 55 9.9 49.8 0
10:32 1024 30.24 853 25.19 18.9 66.1 58 10.5 50.8 0
10:33 1024 30.24 853 25.19 19 66.1 60 11.1 52 0
10:34 1024 30.24 853 25.19 18.9 66.1 54 9.7 49.4 0
10:35 1024 30.24 853 25.19 19 66.1 60 11 51.8 0
10:36 1024 30.24 853 25.19 19.1 66.3 52 9.1 48.3 0
10:37 1024 30.24 853 25.19 19.1 66.4 53 9.5 49.2 0
10:38 1024 30.24 853 25.19 19.2 66.6 62 11.9 53.4 0
10:39 1024 30.24 853 25.19 19.5 67 58 11 51.8 0
10:40 1024 30.24 853 25.19 19.6 67.3 51 9.4 49 0
10:41 1024 30.24 853 25.19 19.7 67.4 56 10.9 51.6 0
10:42 1024 30.24 853 25.19 19.7 67.5 52 9.8 49.6 0
10:43 1024 30.24 853 25.19 19.7 67.5 52 9.6 49.3 0
10:44 1024 30.24 853 25.19 19.6 67.2 53 9.8 49.6 0
10:45 1024 30.24 853 25.19 19.5 67 57 10.8 51.5 0
10:46 1024 30.24 853 25.19 19.4 67 55 10.3 50.6 0
10:47 1024 30.24 853 25.19 19.4 66.9 57 10.7 51.3 0
10:48 1024 30.24 853 25.19 19.3 66.7 52 9.2 48.5 0
10:49 1024 30.24 853 25.19 19.3 66.7 58 10.8 51.4 0
10:50 1024 30.24 853 25.19 19.3 66.8 55 10.1 50.2 0
10:51 1024 30.24 853 25.19 19.4 66.9 50 8.8 47.8 0
10:52 1024 30.24 853 25.19 19.4 66.9 49 8.5 47.2 0
10:53 1024 30.24 853 25.19 19.3 66.7 48 8 46.4 0
10:54 1024 30.24 853 25.19 19.3 66.7 50 8.7 47.7 0
10:55 1024 30.24 853 25.19 19.3 66.8 55 10.3 50.5 0
10:56 1024 30.24 853 25.19 19.3 66.8 52 9.3 48.7 0
10:57 1024 30.24 853 25.19 19.4 67 52 9.4 48.9 0
10:58 1024 30.24 853 25.19 19.4 67 53 9.8 49.6 0
10:59 1024 30.24 853 25.19 19.4 66.9 53 9.8 49.6 0
11:00 1024 30.24 853 25.19 19.6 67.2 53 9.8 49.7 0
11:01 1024 30.24 853 25.19 19.6 67.3 53 9.9 49.8 0
11:02 1024 30.24 853 25.19 19.6 67.4 48 8.5 47.3 0
11:03 1024 30.24 853 25.19 19.7 67.4 51 9.5 49.1 0
11:04 1024 30.24 853 25.19 19.8 67.6 49 8.9 48.1 0
11:05 1024 30.24 853 25.19 19.8 67.7 54 10.5 50.9 0
11:06 1024 30.24 853 25.19 19.9 67.7 53 10.2 50.4 0
11:07 1024 30.24 853 25.19 19.9 67.9 59 11.7 53 0
11:08 1024 30.24 853 25.19 19.9 67.8 52 9.8 49.7 0
11:09 1024 30.24 853 25.19 19.9 67.8 51 9.5 49.1 0
11:10 1024 30.24 853 25.19 19.9 67.9 49 9.1 48.5 0
11:11 1024 30.24 853 25.19 19.9 67.8 49 9.1 48.5 0
11:12 1024 30.24 853 25.19 19.8 67.7 47 8.5 47.3 0
11:13 1024 30.24 853 25.19 19.9 67.9 48 8.7 47.6 0
11:14 1024 30.24 853 25.19 20.1 68.1 49 9.3 48.7 0
11:15 1024 30.24 853 25.19 20 68.1 49 9.1 48.4 0
11:16 1024 30.24 853 25.19 20 68 49 9.2 48.6 0
11:17 1024 30.24 853 25.19 19.9 67.9 54 10.6 51 0
11:18 1024 30.24 853 25.19 19.9 67.8 47 8.4 47.1 0
11:19 1024 30.24 853 25.19 20 68 48 8.8 47.8 0
11:20 1024 30.24 853 25.19 20.1 68.2 50 9.5 49.1 0
11:21 1024 30.24 853 25.19 20.2 68.4 59 12 53.6 0
11:22 1024 30.24 853 25.19 20.2 68.4 49 9.4 48.9 0
11:23 1024 30.24 853 25.19 20.1 68.1 51 9.9 49.7 0
11:24 1024 30.24 853 25.19 20 67.9 51 9.7 49.5 0
11:25 1024 30.24 853 25.19 20 67.9 52 9.8 49.7 0
11:26 1024 30.24 853 25.19 20 68 57 11.3 52.3 0
11:27 1024 30.24 853 25.19 20 68.1 49 9.2 48.5 0
11:28 1024 30.24 853 25.19 20 68 55 10.8 51.5 0
11:29 1024 30.24 853 25.19 20 68.1 47 8.4 47.1 0
11:30 1024 30.24 853 25.19 20.1 68.2 54 10.7 51.3 0
11:31 1024 30.24 853 25.19 20.2 68.4 49 9.2 48.5 0
11:32 1024 30.24 853 25.19 20.2 68.4 46 8.3 47 0
11:33 1024 30.24 853 25.19 20.1 68.2 44 7.7 45.9 0
11:34 1024 30.24 853 25.19 20 68.1 49 9.2 48.5 0
11:35 1024 30.24 853 25.19 20.1 68.1 49 9.1 48.4 0
11:36 1024 30.24 853 25.19 20.2 68.3 50 9.5 49.1 0
11:37 1024 30.24 853 25.19 20.4 68.6 52 10.3 50.6 0
11:38 1024 30.24 853 25.19 20.4 68.8 47 9 48.1 0
11:39 1024 30.24 853 25.19 20.4 68.7 43 7.5 45.5 0
11:40 1024 30.24 853 25.19 20.4 68.7 47 8.7 47.7 0
11:41 1024 30.24 853 25.19 20.5 68.9 49 9.5 49.2 0
11:42 1024 30.24 853 25.19 20.5 68.9 43 7.7 45.9 0
11:43 1024 30.24 853 25.19 20.4 68.6 48 9.2 48.5 0
11:44 1024 30.24 853 25.19 20.4 68.6 52 10.3 50.5 0
11:45 1024 30.24 853 25.19 20.3 68.5 48 9.1 48.4 0
11:46 1024 30.24 853 25.19 20.4 68.6 45 8.3 46.9 0
11:47 1024 30.24 853 25.19 20.4 68.8 45 8.2 46.7 0
11:48 1024 30.24 853 25.19 20.4 68.7 45 8.3 46.9 0
11:49 1024 30.24 853 25.19 20.4 68.7 43 7.6 45.6 0
11:50 1024 30.24 853 25.19 20.4 68.6 45 8.1 46.6 0
11:51 1024 30.24 853 25.19 20.4 68.6 43 7.4 45.4 0
11:52 1024 30.24 853 25.19 20.5 68.8 46 8.6 47.5 0
11:53 1024 30.24 853 25.19 20.4 68.8 50 9.9 49.8 0
11:54 1024 30.24 853 25.19 20.5 69 48 9.3 48.8 0
11:55 1024 30.24 853 25.19 20.6 69 51 10.1 50.2 0
11:56 1024 30.24 853 25.19 20.6 69 50 10 50 0
11:57 1024 30.24 853 25.19 20.6 69.1 53 10.9 51.6 0
11:58 1024 30.24 853 25.19 20.6 69.1 56 11.7 53.1 0
11:59 1024 30.24 853 25.19 20.8 69.5 52 10.7 51.3 0
12:00 1024 30.24 853 25.19 21.1 69.9 53 11.1 52.1 0
12:01 1024 30.24 853 25.19 21 69.7 53 11.2 52.1 0
12:02 1024 30.24 853 25.19 20.8 69.4 51 10.5 50.9 0
12:03 1024 30.24 853 25.19 20.7 69.3 48 9.4 48.8 0
12:04 1024 30.24 853 25.19 20.7 69.2 53 11 51.8 0
12:05 1024 30.24 853 25.19 20.7 69.3 50 10.1 50.2 0
12:06 1024 30.24 853 25.19 20.7 69.2 55 11.5 52.8 0
12:07 1024 30.24 853 25.19 20.7 69.2 53 10.8 51.4 0
12:08 1024 30.24 853 25.19 20.6 69.1 49 9.7 49.4 0
12:09 1024 30.24 853 25.19 20.6 69.2 49 9.8 49.6 0
12:10 1024 30.24 853 25.19 20.7 69.3 48 9.5 49 0
12:11 1024 30.24 853 25.19 20.7 69.2 52 10.7 51.3 0
12:12 1024 30.24 853 25.19 20.6 69.1 46 8.8 47.9 0
12:13 1024 30.24 853 25.19 20.6 69 51 10.2 50.4 0
12:14 1024 30.24 853 25.19 20.5 69 47 9 48.2 0
12:15 1024 30.24 853 25.19 20.6 69.1 56 11.6 52.9 0
12:16 1024 30.24 853 25.19 20.8 69.4 52 10.8 51.4 0
12:17 1024 30.24 853 25.19 21 69.7 48 9.8 49.7 0
12:18 1024 30.24 853 25.19 21 69.8 54 11.6 52.8 0
12:19 1024 30.24 853 25.19 21.2 70.1 49 10.2 50.3 0
12:20 1024 30.24 853 25.19 21.3 70.3 46 9.5 49.1 0
12:21 1024 30.24 853 25.19 21.2 70.2 46 9.3 48.8 0
12:22 1024 30.24 853 25.19 21.2 70.2 51 10.8 51.5 0
12:23 1024 30.24 853 25.19 21.3 70.3 51 10.9 51.6 0
12:24 1024 30.24 853 25.19 21.1 70.1 46 9.2 48.6 0
12:25 1024 30.24 853 25.19 21 69.7 45 8.9 48 0
12:26 1024 30.24 853 25.19 20.9 69.5 46 9.1 48.4 0
12:27 1024 30.24 853 25.19 20.8 69.4 49 9.8 49.6 0
12:28 1024 30.24 853 25.19 20.9 69.6 51 10.4 50.8 0
12:29 1024 30.24 853 25.19 21 69.8 52 10.8 51.5 0
12:30 1024 30.24 853 25.19 21.1 69.9 51 10.6 51.1 0
12:31 1024 30.24 853 25.19 21.2 70.1 45 9.1 48.3 0
12:32 1024 30.24 853 25.19 21.2 70.1 49 10.2 50.4 0
12:33 1024 30.24 853 25.19 21.1 70.1 45 8.9 48 0
12:34 1024 30.24 853 25.19 21.1 69.9 51 10.6 51.2 0
12:35 1024 30.24 853 25.19 21.1 70 48 9.9 49.9 0
12:36 1024 30.24 853 25.19 21.2 70.1 46 9.2 48.5 0
12:37 1024 30.24 853 25.19 21.2 70.1 46 9.1 48.5 0
12:38 1024 30.24 853 25.19 21.1 70.1 58 12.7 54.8 0
12:39 1024 30.24 853 25.19 21.2 70.1 51 10.7 51.2 0
12:40 1024 30.24 853 25.19 21.3 70.3 51 10.8 51.5 0
12:41 1024 30.24 853 25.19 21.2 70.2 46 9.4 48.9 0
12:42 1024 30.24 853 25.19 21.2 70.2 46 9.2 48.6 0
12:43 1024 30.24 853 25.19 21.3 70.4 52 11.1 52 0
12:44 1024 30.24 853 25.19 21.4 70.5 55 12.1 53.8 0
12:45 1024 30.24 853 25.19 21.6 70.8 44 9 48.2 0
12:46 1024 30.24 853 25.19 21.6 70.9 48 10.2 50.4 0
12:47 1024 30.24 853 25.19 21.5 70.8 45 9.2 48.6 0
12:48 1024 30.24 853 25.19 21.4 70.6 43 8.5 47.4 0
12:49 1024 30.24 853 25.19 21.4 70.4 46 9.5 49.1 0
12:50 1024 30.24 853 25.19 21.4 70.5 48 10.2 50.4 0
12:51 1024 30.24 853 25.19 21.5 70.8 43 8.6 47.5 0
12:52 1024 30.24 853 25.19 21.5 70.7 50 10.9 51.7 0
12:53 1024 30.24 853 25.19 21.6 70.8 50 11 51.7 0
12:54 1024 30.24 853 25.19 21.5 70.8 45 9.4 48.9 0
12:55 1024 30.24 853 25.19 21.5 70.7 44 8.8 47.8 0
12:56 1024 30.24 853 25.19 21.5 70.7 45 9.1 48.3 0
12:57 1024 30.24 853 25.19 21.5 70.7 45 9.3 48.7 0
12:58 1024 30.24 853 25.19 21.6 70.8 44 8.9 48.1 0
12:59 1023 30.21 853 25.19 21.6 70.8 51 11.2 52.2 0
13:00 1023 30.21 853 25.19 21.7 71.1 43 8.7 47.7 0
13:01 1023 30.21 853 25.19 21.8 71.3 49 10.9 51.6 0
13:02 1023 30.21 853 25.19 22 71.5 48 10.7 51.2 0
13:03 1023 30.21 853 25.19 21.9 71.5 47 10.4 50.6 0
13:04 1023 30.21 853 25.19 21.8 71.3 46 9.9 49.8 0
13:05 1023 30.21 853 25.19 21.7 71.1 49 10.8 51.4 0
13:06 1023 30.21 853 25.19 21.7 71 46 9.6 49.2 0
13:07 1023 30.21 853 25.19 21.6 71 42 8.5 47.3 0
13:08 1023 30.21 853 25.19 21.6 70.8 45 9.2 48.5 0
13:09 1023 30.21 853 25.19 21.7 71 53 11.7 53.1 0
13:10 1023 30.21 853 25.19 21.7 71.1 50 11.1 52 0
13:11 1023 30.21 853 25.19 21.7 71.1 50 11.1 52 0
13:12 1023 30.21 853 25.19 21.8 71.2 40 7.9 46.1 0
13:13 1023 30.21 853 25.19 21.8 71.2 42 8.5 47.4 0
13:14 1023 30.21 853 25.19 21.7 71.1 47 10.1 50.1 0
13:15 1023 30.21 853 25.19 21.8 71.2 40 7.8 46 0
13:16 1023 30.21 853 25.19 21.7 71 42 8.3 46.9 0
13:17 1023 30.21 853 25.19 21.6 70.9 42 8.5 47.3 0
13:18 1023 30.21 853 25.19 21.7 71 42 8.4 47.1 0
13:19 1023 30.21 853 25.19 21.8 71.2 42 8.5 47.3 0
13:20 1023 30.21 853 25.19 21.7 71 51 11.1 52 0
13:21 1023 30.21 853 25.19 21.7 71 47 9.9 49.8 0
13:22 1023 30.21 853 25.19 21.7 71 47 10.1 50.2 0
13:23 1023 30.21 853 25.19 21.7 71.1 46 9.8 49.6 0
13:24 1023 30.21 853 25.19 21.7 71 48 10.5 50.9 0
13:25 1023 30.21 853 25.19 21.8 71.2 44 9 48.2 0
13:26 1023 30.21 853 25.19 21.8 71.2 45 9.5 49.1 0
13:27 1023 30.21 853 25.19 21.8 71.3 41 8.2 46.7 0
13:28 1023 30.21 853 25.19 21.9 71.3 45 9.4 49 0
13:29 1023 30.21 853 25.19 21.9 71.4 46 10.1 50.1 0
13:30 1023 30.21 853 25.19 21.9 71.4 47 10.3 50.6 0
13:31 1023 30.21 853 25.19 21.9 71.4 40 7.8 46 0
13:32 1023 30.21 853 25.19 21.9 71.4 45 9.4 49 0
13:33 1023 30.21 853 25.19 22 71.7 41 8.3 47 0
13:34 1023 30.21 853 25.19 22 71.6 51 11.5 52.7 0
13:35 1023 30.21 853 25.19 22 71.7 39 7.8 46 0
13:36 1023 30.21 853 25.19 22 71.6 43 9.2 48.5 0
13:37 1023 30.21 853 25.19 22 71.7 48 10.7 51.2 0
13:38 1023 30.21 853 25.19 22.1 71.7 47 10.4 50.6 0
13:39 1023 30.21 853 25.19 22 71.6 43 8.9 48 0
13:40 1023 30.21 853 25.19 22.1 71.9 46 10.1 50.2 0
13:41 1023 30.21 853 25.19 22.3 72.1 46 10.2 50.3 0
13:42 1023 30.21 853 25.19 22.2 71.9 44 9.4 48.8 0
13:43 1023 30.21 853 25.19 22.2 71.9 48 10.8 51.4 0
13:44 1023 30.21 853 25.19 22.2 72 41 8.7 47.6 0
13:45 1023 30.21 853 25.19 22.2 71.9 40 8.1 46.6 0
13:46 1023 30.21 853 25.19 22.1 71.8 48 10.6 51.1 0
13:47 1023 30.21 853 25.19 22.2 71.9 43 9.3 48.7 0
13:48 1023 30.21 853 25.19 22.4 72.4 40 8.4 47.1 0
13:49 1023 30.21 853 25.19 22.5 72.4 44 9.7 49.5 0
13:50 1023 30.21 853 25.19 22.5 72.5 43 9.5 49 0
13:51 1023 30.21 853 25.19 22.5 72.4 43 9.5 49.2 0
13:52 1023 30.21 853 25.19 22.5 72.4 41 8.8 47.9 0
13:53 1023 30.21 853 25.19 22.6 72.6 39 8.2 46.8 0
13:54 1023 30.21 852 25.16 22.7 72.8 44 9.8 49.7 0
13:55 1023 30.21 852 25.16 22.7 72.8 40 8.6 47.5 0
13:56 1023 30.21 852 25.16 22.5 72.4 43 9.3 48.8 0
13:57 1023 30.21 852 25.16 22.3 72.2 37 7.2 44.9 0
13:58 1023 30.21 852 25.16 22.3 72.1 46 10.2 50.3 0
13:59 1023 30.21 852 25.16 22.4 72.3 44 9.7 49.4 0
14:00 1023 30.21 852 25.16 22.5 72.4 40 8.4 47.1 0
14:01 1023 30.21 852 25.16 22.5 72.5 38 7.6 45.6 0
14:02 1023 30.21 852 25.16 22.5 72.5 42 9.2 48.6 0
14:03 1023 30.21 852 25.16 22.5 72.6 37 7.1 44.8 0
14:04 1023 30.21 852 25.16 22.5 72.6 44 10 49.9 0
14:05 1023 30.21 852 25.16 22.5 72.5 42 9 48.2 0
14:06 1023 30.21 852 25.16 22.5 72.4 45 10 50.1 0
14:07 1023 30.21 852 25.16 22.5 72.4 36 6.9 44.4 0
14:08 1023 30.21 852 25.16 22.5 72.4 39 7.9 46.1 0
14:09 1023 30.21 852 25.16 22.5 72.5 35 6.4 43.6 0
14:10 1023 30.21 852 25.16 22.5 72.5 36 6.8 44.2 0
14:11 1023 30.21 852 25.16 22.6 72.6 39 8.2 46.8 0
14:12 1023 30.21 852 25.16 22.6 72.6 35 6.7 44.1 0
14:13 1023 30.21 852 25.16 22.7 72.8 41 8.9 48.1 0
14:14 1023 30.21 852 25.16 22.7 72.9 44 10.2 50.3 0
14:15 1023 30.21 852 25.16 22.7 72.8 39 8.2 46.7 0
14:16 1023 30.21 852 25.16 22.7 72.8 35 6.7 44.1 0
14:17 1023 30.21 852 25.16 22.6 72.7 43 9.7 49.4 0
14:18 1023 30.21 852 25.16 22.7 72.8 40 8.6 47.5 0
14:19 1023 30.21 852 25.16 22.7 72.9 40 8.5 47.3 0
14:20 1023 30.21 852 25.16 22.8 73 40 8.6 47.5 0
14:21 1023 30.21 852 25.16 22.7 72.9 38 8 46.5 0
14:22 1023 30.21 852 25.16 22.8 73 42 9.5 49.1 0
14:23 1023 30.21 852 25.16 22.8 73.1 38 8 46.4 0
14:24 1023 30.21 852 25.16 22.9 73.3 38 8.1 46.6 0
14:25 1023 30.21 852 25.16 23 73.3 38 8 46.3 0
14:26 1023 30.21 852 25.16 23 73.5 40 8.9 48.1 0
14:27 1023 30.21 852 25.16 23.1 73.5 40 8.9 48 0
14:28 1023 30.21 852 25.16 23.2 73.7 42 9.8 49.7 0
14:29 1023 30.21 852 25.16 23.2 73.8 47 11.5 52.7 0
14:30 1023 30.21 852 25.16 23.3 73.9 38 8.2 46.7 0
14:31 1023 30.21 852 25.16 23.3 73.9 37 8.1 46.6 0
14:32 1023 30.21 852 25.16 23.3 73.9 41 9.3 48.7 0
14:33 1023 30.21 853 25.19 23.2 73.8 40 9 48.2 0
14:34 1023 30.21 852 25.16 23.1 73.6 38 8.3 47 0
14:35 1023 30.21 852 25.16 23 73.5 41 9.4 48.9 0
14:36 1023 30.21 852 25.16 23.2 73.7 36 7.5 45.5 0
14:37 1023 30.21 852 25.16 23.2 73.8 39 8.6 47.4 0
14:38 1023 30.21 852 25.16 23.3 73.9 42 9.8 49.6 0
14:39 1023 30.21 852 25.16 23.4 74 45 10.9 51.7 0
14:40 1023 30.21 852 25.16 23.3 74 37 8 46.4 0
14:41 1023 30.21 852 25.16 23.2 73.7 41 9.5 49.1 0
14:42 1023 30.21 852 25.16 23.2 73.8 41 9.4 48.9 0
14:43 1023 30.21 852 25.16 23.3 73.9 38 8.2 46.8 0
14:44 1023 30.21 852 25.16 23.2 73.8 35 7.1 44.8 0
14:45 1023 30.21 852 25.16 23.2 73.8 43 10.1 50.2 0
14:46 1023 30.21 852 25.16 23.2 73.8 37 8 46.5 0
14:47 1023 30.21 852 25.16 23.2 73.7 37 7.8 46.1 0
14:48 1023 30.21 852 25.16 23.1 73.5 41 9.2 48.6 0
14:49 1023 30.21 852 25.16 23 73.4 40 9 48.1 0
14:50 1023 30.21 852 25.16 23 73.5 43 10.1 50.1 0
14:51 1023 30.21 852 25.16 23.2 73.7 40 9 48.2 0
14:52 1023 30.21 852 25.16 23.3 73.9 40 9.2 48.5 0
14:53 1023 30.21 852 25.16 23.3 73.9 41 9.6 49.3 0
14:54 1023 30.21 852 25.16 23.3 73.9 37 8 46.5 0
14:55 1023 30.21 852 25.16 23.2 73.8 45 10.7 51.2 0
14:56 1023 30.21 852 25.16 23.2 73.8 41 9.4 48.9 0
14:57 1023 30.21 852 25.16 23.3 74 46 11.2 52.2 0
14:58 1023 30.21 852 25.16 23.4 74.2 36 7.8 46.1 0
14:59 1023 30.21 852 25.16 23.5 74.2 39 9 48.2 0
15:00 1023 30.21 852 25.16 23.4 74.1 34 7 44.6 0
15:01 1023 30.21 852 25.16 23.3 73.9 41 9.6 49.3 0
15:02 1023 30.21 852 25.16 23.3 73.9 39 8.6 47.5 0
15:03 1023 30.21 852 25.16 23.3 73.9 38 8.2 46.8 0
15:04 1023 30.21 852 25.16 23.2 73.7 41 9.5 49 0
15:05 1023 30.21 852 25.16 23.1 73.5 38 8.2 46.8 0
15:06 1023 30.21 852 25.16 23.1 73.5 44 10.2 50.3 0
15:07 1023 30.21 852 25.16 23.1 73.7 38 8.2 46.7 0
15:08 1023 30.21 852 25.16 23.1 73.7 44 10.3 50.6 0
15:09 1023 30.21 852 25.16 23.3 73.9 38 8.6 47.4 0
15:10 1023 30.21 852 25.16 23.3 73.9 40 9.2 48.5 0
15:11 1023 30.21 852 25.16 23.2 73.7 42 9.8 49.7 0
15:12 1023 30.21 852 25.16 23.2 73.7 37 7.8 46 0
15:13 1023 30.21 852 25.16 23.1 73.5 37 7.8 46 0
15:14 1023 30.21 852 25.16 23.1 73.6 37 7.8 46.1 0
15:15 1023 30.21 852 25.16 23.2 73.7 44 10.3 50.5 0
15:16 1023 30.21 852 25.16 23.3 74 42 10 50 0
15:17 1023 30.21 852 25.16 23.4 74.2 46 11.4 52.5 0
15:18 1023 30.21 852 25.16 23.4 74.1 40 9.1 48.3 0
15:19 1023 30.21 852 25.16 23.5 74.2 40 9.3 48.7 0
15:20 1023 30.21 852 25.16 23.6 74.4 44 10.7 51.3 0
15:21 1023 30.21 852 25.16 23.7 74.6 36 8 46.5 0
15:22 1023 30.21 852 25.16 23.6 74.5 40 9.3 48.8 0
15:23 1023 30.21 852 25.16 23.4 74.2 39 8.8 47.9 0
15:24 1023 30.21 852 25.16 23.5 74.2 40 9.4 49 0
15:25 1023 30.21 852 25.16 23.6 74.4 35 7.5 45.5 0
15:26 1023 30.21 852 25.16 23.5 74.4 42 10 50.1 0
15:27 1023 30.21 852 25.16 23.5 74.4 42 10.1 50.2 0
15:28 1023 30.21 852 25.16 23.5 74.3 39 9 48.2 0
15:29 1023 30.21 852 25.16 23.6 74.5 39 9 48.2 0
15:30 1023 30.21 852 25.16 23.7 74.6 35 7.5 45.4 0
15:31 1023 30.21 852 25.16 23.7 74.6 39 8.9 48.1 0
15:32 1023 30.21 852 25.16 23.6 74.5 39 9.2 48.5 0
15:33 1023 30.21 852 25.16 23.6 74.4 39 9 48.3 0
15:34 1023 30.21 852 25.16 23.6 74.4 37 8.1 46.5 0
15:35 1023 30.21 852 25.16 23.5 74.3 43 10.3 50.5 0
15:36 1023 30.21 852 25.16 23.5 74.3 41 9.5 49.2 0
15:37 1023 30.21 852 25.16 23.5 74.3 42 10 50 0
15:38 1023 30.21 852 25.16 23.6 74.5 46 11.6 52.9 0
15:39 1023 30.21 852 25.16 23.6 74.6 36 7.9 46.2 0
15:40 1023 30.21 852 25.16 23.7 74.7 41 9.8 49.7 0
15:41 1023 30.21 852 25.16 23.7 74.7 41 9.8 49.7 0
15:42 1023 30.21 852 25.16 23.9 75 36 8 46.4 0
15:43 1023 30.21 852 25.16 23.8 74.8 38 8.7 47.6 0
15:44 1023 30.21 852 25.16 23.8 74.8 35 7.7 45.9 0
15:45 1023 30.21 852 25.16 23.7 74.7 39 9.3 48.8 0
15:46 1023 30.21 852 25.16 23.8 74.8 36 8 46.4 0
15:47 1023 30.21 852 25.16 23.8 74.8 43 10.5 50.9 0
15:48 1023 30.21 852 25.16 23.8 74.8 42 10.2 50.3 0
15:49 1023 30.21 852 25.16 23.7 74.6 36 8.1 46.6 0
15:50 1023 30.21 852 25.16 23.6 74.5 37 8.4 47.1 0
15:51 1023 30.21 852 25.16 23.6 74.4 40 9.2 48.6 0
15:52 1023 30.21 852 25.16 23.6 74.6 38 8.8 47.9 0
15:53 1023 30.21 852 25.16 23.6 74.6 38 8.6 47.4 0
15:54 1023 30.21 852 25.16 23.8 74.8 37 8.2 46.8 0
15:55 1023 30.21 852 25.16 23.8 74.8 39 9.3 48.8 0
15:56 1023 30.21 852 25.16 23.8 74.8 44 11.1 52 0
15:57 1023 30.21 852 25.16 23.8 74.8 37 8.5 47.3 0
15:58 1023 30.21 852 25.16 23.9 74.9 40 9.5 49 0
15:59 1023 30.21 852 25.16 24 75.1 35 8 46.4 0
16:00 1023 30.21 852 25.16 24 75.1 40 9.7 49.4 0
16:01 1023 30.21 852 25.16 23.9 75.1 36 8.3 47 0
16:02 1023 30.21 852 25.16 23.9 75 36 8.3 46.9 0
16:03 1023 30.21 852 25.16 23.8 74.9 37 8.5 47.4 0
16:04 1023 30.21 852 25.16 23.9 74.9 34 7.1 44.8 0
16:05 1023 30.21 852 25.16 23.9 75 36 8.3 47 0
16:06 1023 30.21 852 25.16 23.9 75.1 42 10.4 50.7 0
16:07 1023 30.21 852 25.16 23.9 75 35 7.8 46 0
16:08 1023 30.21 852 25.16 23.9 74.9 36 8.3 46.9 0
16:09 1023 30.21 852 25.16 23.9 75 43 10.8 51.4 0
16:10 1023 30.21 852 25.16 23.9 75.1 40 9.9 49.8 0
16:11 1023 30.21 852 25.16 24 75.3 43 10.9 51.5 0
16:12 1023 30.21 852 25.16 24.2 75.5 40 9.8 49.7 0
16:13 1023 30.21 852 25.16 24.3 75.7 38 9.3 48.8 0
16:14 1023 30.21 852 25.16 24.3 75.7 36 8.3 47 0
16:15 1023 30.21 852 25.16 24.2 75.6 39 9.5 49.2 0
16:16 1023 30.21 852 25.16 24.2 75.6 40 9.9 49.8 0
16:17 1023 30.21 852 25.16 24.2 75.6 40 10 50 0
16:18 1023 30.21 852 25.16 24.3 75.7 38 9.4 48.9 0
16:19 1023 30.21 852 25.16 24.2 75.6 39 9.6 49.3 0
16:20 1023 30.21 852 25.16 24.2 75.6 35 7.9 46.3 0
16:21 1023 30.21 852 25.16 24.2 75.5 39 9.5 49 0
16:22 1023 30.21 852 25.16 24.2 75.6 40 10 50.1 0
16:23 1023 30.21 852 25.16 24.3 75.8 38 9.4 49 0
16:24 1023 30.21 852 25.16 24.4 76 37 9 48.2 0
16:25 1023 30.21 852 25.16 24.5 76.1 34 7.8 46 0
16:26 1023 30.21 852 25.16 24.4 76 33 7.2 45 0
16:27 1023 30.21 852 25.16 24.4 75.9 33 7.2 44.9 0
16:28 1023 30.21 852 25.16 24.4 75.9 35 8.1 46.5 0
16:29 1023 30.21 852 25.16 24.4 76 36 8.5 47.4 0
16:30 1023 30.21 852 25.16 24.4 76 34 7.6 45.8 0
16:31 1023 30.21 852 25.16 24.5 76 34 7.9 46.2 0
16:32 1023 30.21 852 25.16 24.5 76.2 32 6.9 44.4 0
16:33 1023 30.21 852 25.16 24.6 76.2 30 6.1 43 0
16:34 1023 30.21 852 25.16 24.6 76.2 35 8.4 47.1 0
16:35 1023 30.21 852 25.16 24.5 76.2 34 7.7 45.9 0
16:36 1023 30.21 852 25.16 24.6 76.2 30 5.9 42.6 0
16:37 1023 30.21 852 25.16 24.6 76.2 32 6.8 44.3 0
16:38 1023 30.21 852 25.16 24.5 76.2 36 8.8 47.8 0
16:39 1023 30.21 852 25.16 24.5 76.1 32 7.2 44.9 0
16:40 1023 30.21 852 25.16 24.5 76.1 37 9.1 48.4 0
16:41 1023 30.21 852 25.16 24.6 76.2 31 6.5 43.7 0
16:42 1023 30.21 852 25.16 24.6 76.3 31 6.6 43.9 0
16:43 1023 30.21 852 25.16 24.5 76.1 33 7.4 45.3 0
16:44 1023 30.21 852 25.16 24.4 76 30 6.1 43 0
16:45 1023 30.21 852 25.16 24.4 76 33 7.4 45.4 0
16:46 1023 30.21 852 25.16 24.4 75.9 30 5.9 42.5 0
16:47 1023 30.21 852 25.16 24.4 75.9 32 7 44.7 0
16:48 1023 30.21 852 25.16 24.4 75.9 31 6.5 43.7 0
16:49 1023 30.21 852 25.16 24.4 76 32 6.9 44.5 0
16:50 1023 30.21 852 25.16 24.4 76 32 6.8 44.2 0
16:51 1023 30.21 852 25.16 24.4 76 32 6.8 44.2 0
16:52 1023 30.21 852 25.16 24.4 75.9 36 8.7 47.6 0
16:53 1023 30.21 852 25.16 24.5 76 30 5.8 42.5 0
16:54 1023 30.21 852 25.16 24.5 76.1 33 7.4 45.2 0
16:55 1023 30.21 852 25.16 24.5 76 32 6.9 44.5 0
16:56 1022 30.18 852 25.16 24.5 76 31 6.5 43.7 0
16:57 1022 30.18 852 25.16 24.5 76.2 33 7.6 45.6 0
16:58 1022 30.18 852 25.16 24.6 76.3 32 7.1 44.7 0
16:59 1022 30.18 852 25.16 24.6 76.3 30 6.3 43.3 0
17:00 1022 30.18 852 25.16 24.6 76.3 31 6.8 44.2 0
17:01 1022 30.18 852 25.16 24.6 76.2 34 8 46.5 0
17:02 1022 30.18 852 25.16 24.6 76.3 36 8.7 47.7 0
17:03 1022 30.18 852 25.16 24.6 76.3 32 7 44.5 0
17:04 1022 30.18 852 25.16 24.6 76.3 31 6.5 43.6 0
17:05 1022 30.18 852 25.16 24.6 76.2 32 7.1 44.8 0
17:06 1022 30.18 852 25.16 24.6 76.2 32 6.9 44.5 0
17:07 1022 30.18 852 25.16 24.5 76.1 30 6.1 42.9 0
17:08 1022 30.18 852 25.16 24.6 76.2 28 5.2 41.3 0
17:09 1022 30.18 852 25.16 24.6 76.2 31 6.5 43.7 0
17:10 1022 30.18 852 25.16 24.6 76.2 32 7.1 44.7 0
17:11 1022 30.18 852 25.16 24.6 76.2 29 5.5 41.9 0
17:12 1022 30.18 852 25.16 24.6 76.2 32 7.2 44.9 0
17:13 1022 30.18 852 25.16 24.5 76.1 33 7.3 45.2 0
17:14 1022 30.18 852 25.16 24.6 76.2 33 7.3 45.1 0
17:15 1022 30.18 852 25.16 24.6 76.2 33 7.4 45.4 0
17:16 1022 30.18 852 25.16 24.6 76.2 30 6 42.8 0
17:17 1022 30.18 852 25.16 24.6 76.2 29 5.5 42 0
17:18 1022 30.18 852 25.16 24.6 76.2 30 6.3 43.3 0
17:19 1022 30.18 852 25.16 24.7 76.4 29 5.8 42.5 0
17:20 1022 30.18 852 25.16 24.7 76.5 30 6.2 43.1 0
17:21 1022 30.18 852 25.16 24.8 76.6 29 5.8 42.5 0
17:22 1022 30.18 852 25.16 24.8 76.6 32 7.2 44.9 0
17:23 1022 30.18 852 25.16 24.8 76.6 33 7.8 46.1 0
17:24 1022 30.18 852 25.16 24.8 76.7 30 6.5 43.8 0
17:25 1022 30.18 852 25.16 24.8 76.6 32 7.3 45.2 0
17:26 1022 30.18 852 25.16 24.6 76.3 30 6.4 43.4 0
17:27 1022 30.18 852 25.16 24.6 76.2 35 8.3 47 0
17:28 1022 30.18 852 25.16 24.5 76.1 33 7.3 45.2 0
17:29 1022 30.18 852 25.16 24.5 76.2 29 5.8 42.4 0
17:30 1022 30.18 852 25.16 24.6 76.2 33 7.4 45.4 0
17:31 1022 30.18 852 25.16 24.7 76.4 32 7.1 44.7 0
17:32 1022 30.18 852 25.16 24.7 76.5 33 7.8 46 0
17:33 1022 30.18 852 25.16 24.8 76.6 29 5.9 42.6 0
17:34 1022 30.18 852 25.16 24.8 76.6 28 5.4 41.7 0
17:35 1022 30.18 852 25.16 24.8 76.6 32 7 44.6 0
17:36 1022 30.18 852 25.16 24.7 76.5 32 7 44.5 0
17:37 1022 30.18 852 25.16 24.8 76.7 32 7.4 45.3 0
17:38 1022 30.18 852 25.16 24.9 76.8 35 8.6 47.5 0
17:39 1022 30.18 852 25.16 25 76.9 31 6.9 44.5 0
17:40 1022 30.18 852 25.16 24.9 76.8 30 6.4 43.5 0
17:41 1022 30.18 852 25.16 24.9 76.7 30 6.5 43.8 0
17:42 1022 30.18 852 25.16 24.8 76.7 32 7.1 44.7 0
17:43 1022 30.18 852 25.16 24.8 76.7 37 9.2 48.6 0
17:44 1022 30.18 852 25.16 24.9 76.7 31 6.8 44.2 0
17:45 1022 30.18 852 25.16 24.8 76.7 28 5.4 41.8 0
17:46 1022 30.18 852 25.16 24.8 76.7 27 4.7 40.4 0
17:47 1022 30.18 852 25.16 24.8 76.6 30 6.3 43.4 0
17:48 1022 30.18 852 25.16 24.7 76.5 31 6.5 43.7 0
17:49 1022 30.18 852 25.16 24.7 76.5 27 4.9 40.8 0
17:50 1022 30.18 852 25.16 24.7 76.4 30 6.3 43.3 0
17:51 1022 30.18 852 25.16 24.7 76.4 31 6.5 43.6 0
17:52 1022 30.18 852 25.16 24.7 76.4 28 5.4 41.7 0
17:53 1022 30.18 852 25.16 24.7 76.4 28 5.3 41.6 0
17:54 1022 30.18 852 25.16 24.7 76.4 32 6.9 44.4 0
17:55 1022 30.18 852 25.16 24.7 76.4 32 7.1 44.8 0
17:56 1022 30.18 852 25.16 24.7 76.5 39 10.1 50.2 0
17:57 1022 30.18 852 25.16 24.8 76.6 30 6.2 43.2 0
17:58 1022 30.18 852 25.16 24.7 76.5 29 5.9 42.7 0
17:59 1022 30.18 852 25.16 24.7 76.4 31 6.6 43.9 0
18:00 1022 30.18 852 25.16 24.7 76.4 31 6.6 43.9 0
18:01 1022 30.18 852 25.16 24.7 76.5 31 6.5 43.6 0
18:02 1022 30.18 852 25.16 24.7 76.5 30 6.4 43.5 0
18:03 1022 30.18 852 25.16 24.7 76.5 30 6.1 43 0
18:04 1022 30.18 851 25.13 24.8 76.7 32 7.2 44.9 0
18:05 1022 30.18 851 25.13 24.8 76.6 30 6.1 43 0
18:06 1022 30.18 851 25.13 24.8 76.6 30 6.2 43.1 0
18:07 1022 30.18 851 25.13 24.8 76.6 30 6.4 43.6 0
18:08 1022 30.18 851 25.13 24.8 76.6 30 6 42.9 0
18:09 1022 30.18 852 25.16 24.7 76.5 34 8.2 46.8 0
18:10 1022 30.18 852 25.16 24.7 76.4 35 8.3 47 0
18:11 1022 30.18 851 25.13 24.6 76.4 30 6.2 43.2 0
18:12 1022 30.18 851 25.13 24.7 76.4 29 5.6 42.1 0
18:13 1022 30.18 851 25.13 24.7 76.4 33 7.8 46 0
18:14 1022 30.18 852 25.16 24.7 76.5 33 7.5 45.5 0
18:15 1022 30.18 852 25.16 24.7 76.4 31 6.8 44.2 0
18:16 1022 30.18 852 25.16 24.7 76.4 31 6.8 44.3 0
18:17 1022 30.18 852 25.16 24.8 76.6 32 7.3 45.1 0
18:18 1022 30.18 852 25.16 24.8 76.6 30 6.3 43.4 0
18:19 1022 30.18 852 25.16 24.8 76.6 29 6 42.8 0
18:20 1022 30.18 851 25.13 24.7 76.5 31 6.7 44.1 0
18:21 1022 30.18 852 25.16 24.7 76.5 31 6.7 44 0
18:22 1022 30.18 852 25.16 24.7 76.5 30 6.2 43.1 0
18:23 1022 30.18 852 25.16 24.7 76.5 31 6.9 44.3 0
18:24 1022 30.18 852 25.16 24.6 76.4 30 6 42.8 0
18:25 1022 30.18 852 25.16 24.6 76.3 30 6.1 43 0
18:26 1022 30.18 852 25.16 24.7 76.4 33 7.6 45.7 0
18:27 1022 30.18 852 25.16 24.7 76.4 30 6.3 43.3 0
18:28 1022 30.18 852 25.16 24.7 76.4 29 5.9 42.6 0
18:29 1022 30.18 852 25.16 24.7 76.4 33 7.4 45.3 0
18:30 1022 30.18 852 25.16 24.7 76.5 30 6 42.9 0
18:31 1022 30.18 852 25.16 24.7 76.4 28 5.2 41.3 0
18:32 1022 30.18 852 25.16 24.7 76.5 29 5.8 42.4 0
18:33 1022 30.18 852 25.16 24.8 76.6 34 7.9 46.2 0
18:34 1022 30.18 852 25.16 24.8 76.6 33 7.5 45.4 0
18:35 1022 30.18 852 25.16 24.8 76.6 33 7.4 45.4 0
18:36 1022 30.18 852 25.16 24.8 76.6 31 7 44.5 0
18:37 1022 30.18 852 25.16 24.8 76.7 32 7 44.6 0
18:38 1022 30.18 852 25.16 24.8 76.7 30 6.3 43.4 0
18:39 1022 30.18 852 25.16 24.8 76.6 30 6.2 43.1 0
18:40 1022 30.18 852 25.16 24.7 76.5 29 5.8 42.5 0
18:41 1022 30.18 852 25.16 24.7 76.4 30 6.4 43.5 0
18:42 1022 30.18 852 25.16 24.7 76.4 28 5.1 41.2 0
18:43 1022 30.18 852 25.16 24.7 76.4 29 5.8 42.5 0
18:44 1022 30.18 852 25.16 24.7 76.5 30 6.2 43.2 0
18:45 1022 30.18 852 25.16 24.7 76.5 33 7.8 46 0
18:46 1022 30.18 852 25.16 24.7 76.4 31 6.5 43.7 0
18:47 1022 30.18 852 25.16 24.7 76.4 30 6.3 43.4 0
18:48 1022 30.18 852 25.16 24.6 76.3 30 6 42.9 0
18:49 1022 30.18 852 25.16 24.6 76.2 31 6.5 43.7 0
18:50 1022 30.18 852 25.16 24.5 76.1 30 6.2 43.1 0
18:51 1022 30.18 852 25.16 24.5 76.1 30 6.1 43 0
18:52 1022 30.18 852 25.16 24.5 76.1 29 5.6 42 0
18:53 1022 30.18 852 25.16 24.5 76.1 33 7.3 45.1 0
18:54 1022 30.18 852 25.16 24.6 76.2 33 7.4 45.3 0
18:55 1022 30.18 852 25.16 24.5 76.1 32 6.9 44.3 0
18:56 1022 30.18 852 25.16 24.5 76.1 32 6.9 44.5 0
18:57 1022 30.18 852 25.16 24.5 76.1 35 8.2 46.8 0
18:58 1022 30.18 852 25.16 24.5 76.1 33 7.5 45.5 0
18:59 1022 30.18 852 25.16 24.5 76.1 30 6.2 43.2 0
19:00 1022 30.18 852 25.16 24.5 76 33 7.2 44.9 0
19:01 1022 30.18 852 25.16 24.5 76 34 7.6 45.8 0
19:02 1022 30.18 852 25.16 24.5 76 33 7.2 44.9 0
19:03 1022 30.18 852 25.16 24.4 75.9 29 5.3 41.6 0
19:04 1022 30.18 852 25.16 24.4 75.9 30 5.7 42.3 0
19:05 1022 30.18 852 25.16 24.4 76 32 6.9 44.4 0
19:06 1022 30.18 852 25.16 24.5 76 34 7.9 46.2 0
19:07 1022 30.18 852 25.16 24.4 76 29 5.6 42.1 0
19:08 1022 30.18 852 25.16 24.5 76 29 5.7 42.2 0
19:09 1022 30.18 852 25.16 24.4 76 33 7.3 45.1 0
19:10 1022 30.18 852 25.16 24.4 75.9 36 8.6 47.4 0
19:11 1022 30.18 852 25.16 24.5 76 36 8.5 47.2 0
19:12 1022 30.18 852 25.16 24.4 76 30 6 42.8 0
19:13 1023 30.21 852 25.16 24.4 75.9 32 7 44.5 0
19:14 1022 30.18 852 25.16 24.3 75.8 33 7.1 44.8 0
19:15 1022 30.18 852 25.16 24.3 75.7 33 7 44.7 0
19:16 1022 30.18 852 25.16 24.3 75.7 32 6.6 43.8 0
19:17 1022 30.18 852 25.16 24.2 75.6 30 5.9 42.6 0
19:18 1022 30.18 852 25.16 24.2 75.6 33 7 44.6 0
19:19 1023 30.21 852 25.16 24.2 75.5 33 7.1 44.7 0
19:20 1022 30.18 852 25.16 24.1 75.4 32 6.7 44.1 0
19:21 1023 30.21 852 25.16 24.1 75.4 34 7.4 45.2 0
19:22 1023 30.21 852 25.16 24.1 75.4 36 8.4 47.1 0
19:23 1023 30.21 852 25.16 24 75.3 32 6.5 43.7 0
19:24 1023 30.21 852 25.16 24.1 75.3 33 6.8 44.2 0
19:25 1023 30.21 852 25.16 24.1 75.4 37 8.7 47.7 0
19:26 1023 30.21 852 25.16 24.1 75.4 31 6.3 43.4 0
19:27 1023 30.21 852 25.16 24.1 75.4 31 6.3 43.3 0
19:28 1023 30.21 852 25.16 24 75.3 30 5.5 42 0
19:29 1023 30.21 852 25.16 24.1 75.3 34 7.4 45.2 0
19:30 1023 30.21 852 25.16 24.1 75.4 34 7.6 45.6 0
19:31 1023 30.21 852 25.16 24.1 75.4 36 8.3 47 0
19:32 1023 30.21 852 25.16 24.1 75.4 38 9.3 48.7 0
19:33 1023 30.21 852 25.16 24.1 75.3 37 8.7 47.7 0
19:34 1023 30.21 852 25.16 24 75.2 37 8.7 47.6 0
19:35 1023 30.21 852 25.16 24 75.2 39 9.2 48.6 0
19:36 1023 30.21 852 25.16 23.9 75.1 33 7 44.6 0
19:37 1023 30.21 852 25.16 23.9 75 33 7 44.5 0
19:38 1023 30.21 852 25.16 23.8 74.9 31 6.1 42.9 0
19:39 1023 30.21 852 25.16 23.8 74.9 34 7.4 45.3 0
19:40 1023 30.21 852 25.16 23.8 74.9 34 7.1 44.7 0
19:41 1023 30.21 852 25.16 23.8 74.9 38 9 48.1 0
19:42 1023 30.21 852 25.16 23.8 74.8 36 8 46.4 0
19:43 1023 30.21 852 25.16 23.7 74.6 34 7.2 45 0
19:44 1023 30.21 852 25.16 23.6 74.5 35 7.6 45.7 0
19:45 1023 30.21 852 25.16 23.6 74.4 36 7.9 46.2 0
19:46 1023 30.21 852 25.16 23.5 74.2 36 7.6 45.7 0
19:47 1023 30.21 852 25.16 23.4 74 37 7.9 46.3 0
19:48 1023 30.21 852 25.16 23.3 74 35 7.3 45.1 0
19:49 1023 30.21 852 25.16 23.3 73.9 38 8.2 46.8 0
19:50 1023 30.21 852 25.16 23.2 73.8 39 8.6 47.5 0
19:51 1023 30.21 852 25.16 23.1 73.7 37 7.7 45.9 0
19:52 1023 30.21 852 25.16 23.1 73.5 38 8.3 46.9 0
19:53 1023 30.21 852 25.16 23.1 73.5 38 8.2 46.7 0
19:54 1023 30.21 852 25.16 23 73.4 38 8.2 46.8 0
19:55 1023 30.21 852 25.16 23 73.3 36 7.2 44.9 0
19:56 1023 30.21 852 25.16 22.9 73.3 35 6.9 44.4 0
19:57 1023 30.21 852 25.16 22.9 73.2 35 7 44.7 0
19:58 1023 30.21 852 25.16 22.8 73 37 7.4 45.3 0
19:59 1023 30.21 852 25.16 22.7 72.8 37 7.5 45.4 0
20:00 1023 30.21 852 25.16 22.6 72.6 35 6.4 43.6 0
20:01 1023 30.21 852 25.16 22.6 72.6 38 7.7 45.8 0
20:02 1023 30.21 852 25.16 22.6 72.6 39 8.2 46.8 0
20:03 1023 30.21 852 25.16 22.4 72.4 40 8.3 47 0
20:04 1023 30.21 852 25.16 22.3 72.1 38 7.3 45.2 0
20:05 1023 30.21 852 25.16 22.2 71.9 38 7.4 45.2 0
20:06 1023 30.21 852 25.16 22.2 71.9 40 8.2 46.7 0
20:07 1023 30.21 852 25.16 22.1 71.9 41 8.4 47 0
20:08 1023 30.21 852 25.16 22 71.6 41 8.3 46.9 0
20:09 1023 30.21 852 25.16 22 71.5 41 8.3 47 0
20:10 1023 30.21 852 25.16 21.9 71.4 42 8.4 47.2 0
20:11 1023 30.21 852 25.16 21.8 71.3 40 7.7 45.9 0
20:12 1023 30.21 852 25.16 21.8 71.2 41 8.2 46.8 0
20:13 1023 30.21 852 25.16 21.7 71.1 42 8.5 47.3 0
20:14 1023 30.21 852 25.16 21.6 70.9 41 8 46.4 0
20:15 1023 30.21 852 25.16 21.6 70.8 39 7.3 45.2 0
20:16 1023 30.21 852 25.16 21.6 70.8 41 7.9 46.2 0
20:17 1023 30.21 852 25.16 21.5 70.7 43 8.5 47.3 0
20:18 1023 30.21 852 25.16 21.5 70.7 41 7.9 46.3 0
20:19 1023 30.21 852 25.16 21.5 70.6 43 8.6 47.5 0
20:20 1023 30.21 852 25.16 21.4 70.5 43 8.3 46.9 0
20:21 1023 30.21 852 25.16 21.3 70.3 45 9 48.2 0
20:22 1023 30.21 852 25.16 21 69.9 46 9.1 48.3 0
20:23 1023 30.21 852 25.16 20.8 69.5 46 8.8 47.9 0
20:24 1023 30.21 852 25.16 20.6 69.1 48 9.5 49.1 0
20:25 1023 30.21 852 25.16 20.5 68.8 49 9.7 49.4 0
20:26 1023 30.21 852 25.16 20.4 68.7 50 9.8 49.7 0
20:27 1023 30.21 852 25.16 20.2 68.4 52 10.2 50.4 0
20:28 1023 30.21 852 25.16 20 68 54 10.5 51 0
20:29 1023 30.21 852 25.16 19.7 67.4 53 10 49.9 0
20:30 1023 30.21 852 25.16 19.6 67.3 58 11.1 52 0
20:31 1023 30.21 852 25.16 19.4 66.8 56 10.5 50.9 0
20:32 1023 30.21 852 25.16 19.3 66.7 55 10.2 50.4 0
20:33 1023 30.21 852 25.16 19.3 66.7 53 9.6 49.2 0
20:34 1023 30.21 852 25.16 19.3 66.8 54 9.9 49.8 0
20:35 1023 30.21 852 25.16 19.3 66.8 51 9.2 48.5 0
20:36 1023 30.21 852 25.16 19.5 67.1 48 8.2 46.8 0
20:37 1023 30.21 852 25.16 19.7 67.4 48 8.5 47.3 0
20:38 1023 30.21 852 25.16 19.8 67.6 45 7.7 45.8 0
20:39 1023 30.21 852 25.16 20 67.9 50 9.3 48.8 0
20:40 1023 30.21 852 25.16 19.9 67.7 48 8.6 47.5 0
20:41 1023 30.21 852 25.16 19.7 67.5 53 9.9 49.9 0
20:42 1023 30.21 852 25.16 19.6 67.3 49 8.8 47.8 0
20:43 1023 30.21 852 25.16 19.5 67.1 50 9.1 48.3 0
20:44 1023 30.21 852 25.16 19.5 67 50 8.8 47.9 0
20:45 1023 30.21 852 25.16 19.5 67 52 9.5 49.1 0
20:46 1023 30.21 852 25.16 19.4 66.9 47 7.8 46 0
20:47 1023 30.21 852 25.16 19.5 67.1 46 7.6 45.7 0
20:48 1023 30.21 852 25.16 19.8 67.6 43 6.9 44.4 0
20:49 1023 30.21 852 25.16 20.1 68.1 40 6.1 43 0
20:50 1023 30.21 852 25.16 20.2 68.4 42 7.1 44.7 0
20:51 1023 30.21 852 25.16 20.3 68.6 42 7 44.7 0
20:52 1023 30.21 852 25.16 20.3 68.6 46 8.3 47 0
20:53 1023 30.21 852 25.16 19.8 67.6 54 10.2 50.4 0
20:54 1023 30.21 852 25.16 18.7 65.7 57 10.1 50.2 0
20:55 1023 30.21 852 25.16 17.9 64.1 61 10.4 50.7 0
20:56 1023 30.21 852 25.16 17.3 63.1 64 10.6 51 0
20:57 1023 30.21 852 25.16 16.8 62.2 65 10.4 50.7 0
20:58 1023 30.21 852 25.16 16.5 61.6 66 10.2 50.4 0
20:59 1023 30.21 852 25.16 16.3 61.4 68 10.4 50.7 0
21:00 1023 30.21 852 25.16 16.1 60.9 68 10.3 50.5 0
21:01 1023 30.21 852 25.16 15.9 60.6 69 10.2 50.4 0
21:02 1023 30.21 852 25.16 15.8 60.4 68 10 50 0
21:03 1023 30.21 852 25.16 15.9 60.7 66 9.7 49.5 0
21:04 1023 30.21 852 25.16 16.1 61.1 65 9.6 49.3 0
21:05 1023 30.21 852 25.16 16.3 61.4 60 8.6 47.5 0
21:06 1023 30.21 852 25.16 16.8 62.3 60 9.2 48.6 0
21:07 1023 30.21 853 25.19 16.9 62.4 58 8.6 47.5 0
21:08 1023 30.21 853 25.19 17 62.6 56 8.1 46.6 0
21:09 1023 30.21 853 25.19 17.3 63.2 50 6.8 44.2 0
21:10 1023 30.21 853 25.19 17.9 64.2 49 7 44.6 0
21:11 1023 30.21 853 25.19 18.3 64.9 50 7.7 45.8 0
21:12 1023 30.21 853 25.19 18.5 65.2 47 7 44.6 0
21:13 1023 30.21 853 25.19 18.6 65.4 52 8.7 47.7 0
21:14 1023 30.21 852 25.16 18.2 64.8 58 9.9 49.8 0
21:15 1023 30.21 852 25.16 17.8 64 45 5.9 42.7 0
21:16 1023 30.21 853 25.19 18 64.5 48 7.1 44.8 0
21:17 1023 30.21 853 25.19 18.2 64.8 49 7.4 45.4 0
21:18 1023 30.21 853 25.19 18.2 64.7 48 7.1 44.7 0
21:19 1023 30.21 853 25.19 18.2 64.7 46 6.6 43.8 0
21:20 1023 30.21 853 25.19 18.3 64.9 43 5.5 41.9 0
21:21 1023 30.21 853 25.19 18.6 65.5 40 5 41 0
21:22 1023 30.21 853 25.19 19 66.2 39 4.7 40.5 0
21:23 1023 30.21 853 25.19 19.4 66.9 38 4.8 40.7 0
21:24 1023 30.21 853 25.19 19.7 67.4 36 4.5 40.1 0
21:25 1023 30.21 853 25.19 19.9 67.8 37 4.9 40.9 0
21:26 1023 30.21 853 25.19 20 68 39 5.7 42.3 0
21:27 1023 30.21 853 25.19 20 68 39 5.7 42.3 0
21:28 1023 30.21 853 25.19 19.8 67.6 42 6.6 43.8 0
21:29 1023 30.21 853 25.19 19.4 67 48 8.2 46.8 0
21:30 1023 30.21 853 25.19 18.7 65.6 52 8.9 48 0
21:31 1024 30.24 853 25.19 17.9 64.3 45 5.9 42.6 0
21:32 1024 30.24 853 25.19 18.1 64.5 40 4.3 39.8 0
21:33 1024 30.24 853 25.19 18.7 65.6 48 7.6 45.8 0
21:34 1024 30.24 853 25.19 18.6 65.5 56 9.8 49.7 0
21:35 1024 30.24 853 25.19 17.8 64.1 61 10.4 50.7 0
21:36 1024 30.24 853 25.19 17.1 62.8 64 10.4 50.6 0
21:37 1024 30.24 853 25.19 16.6 61.8 66 10.3 50.5 0
21:38 1024 30.24 853 25.19 16.3 61.3 67 10.1 50.2 0
21:39 1024 30.24 853 25.19 16 60.8 68 10.1 50.2 0
21:40 1024 30.24 853 25.19 15.8 60.4 68 9.8 49.7 0
21:41 1024 30.24 853 25.19 15.7 60.2 67 9.6 49.3 0
21:42 1024 30.24 853 25.19 15.7 60.2 65 9.3 48.7 0
21:43 1024 30.24 853 25.19 15.8 60.5 65 9.4 48.9 0
21:44 1024 30.24 853 25.19 15.9 60.7 63 9 48.3 0
21:45 1024 30.24 853 25.19 16.1 61 59 8.2 46.8 0
21:46 1024 30.24 853 25.19 16.5 61.6 56 7.7 45.9 0
21:47 1024 30.24 853 25.19 16.9 62.4 56 8.1 46.6 0
21:48 1024 30.24 853 25.19 17.2 62.9 56 8.3 46.9 0
21:49 1024 30.24 853 25.19 17.4 63.2 55 8.4 47.1 0
21:50 1024 30.24 853 25.19 17.4 63.3 54 8.1 46.6 0
21:51 1024 30.24 853 25.19 17.6 63.6 53 8.1 46.5 0
21:52 1024 30.24 853 25.19 17.7 63.9 54 8.3 46.9 0
21:53 1024 30.24 853 25.19 17.8 64 52 8 46.4 0
21:54 1024 30.24 853 25.19 17.7 63.9 54 8.6 47.4 0
21:55 1024 30.24 853 25.19 17.8 64 53 8.2 46.7 0
21:56 1024 30.24 853 25.19 17.9 64.2 53 8.4 47.1 0
21:57 1024 30.24 853 25.19 17.8 64.1 52 8.1 46.5 0
21:58 1024 30.24 853 25.19 17.8 64.1 54 8.5 47.3 0
21:59 1024 30.24 853 25.19 17.9 64.1 53 8.2 46.7 0
22:00 1024 30.24 853 25.19 18 64.4 51 7.8 46.1 0
22:01 1024 30.24 853 25.19 18.1 64.6 52 8.3 46.9 0
22:02 1024 30.24 853 25.19 18.2 64.7 52 8.3 46.9 0
22:03 1024 30.24 853 25.19 18.2 64.7 52 8.2 46.7 0
22:04 1024 30.24 853 25.19 18.1 64.6 52 8.2 46.8 0
22:05 1024 30.24 853 25.19 18.1 64.6 53 8.4 47.1 0
22:06 1024 30.24 853 25.19 18.1 64.5 53 8.4 47.2 0
22:07 1024 30.24 853 25.19 18.1 64.6 53 8.4 47.1 0
22:08 1024 30.24 853 25.19 18.1 64.6 52 8.4 47 0
22:09 1024 30.24 853 25.19 18.1 64.6 53 8.5 47.3 0
22:10 1024 30.24 853 25.19 18.1 64.6 54 8.7 47.7 0
22:11 1024 30.24 853 25.19 18 64.4 53 8.5 47.4 0
22:12 1024 30.24 853 25.19 18 64.3 54 8.7 47.6 0
22:13 1024 30.24 853 25.19 17.9 64.1 54 8.5 47.2 0
22:14 1024 30.24 853 25.19 17.8 64.1 53 8.1 46.6 0
22:15 1024 30.24 853 25.19 17.8 64.1 53 8.3 46.9 0
22:16 1024 30.24 854 25.22 17.8 64.1 52 8 46.5 0
22:17 1024 30.24 854 25.22 17.9 64.2 51 7.8 46.1 0
22:18 1024 30.24 854 25.22 18 64.4 52 8 46.4 0
22:19 1024 30.24 854 25.22 18.2 64.7 51 7.9 46.2 0
22:20 1024 30.24 854 25.22 18.3 64.9 51 8.1 46.6 0
22:21 1024 30.24 854 25.22 18.3 64.9 51 8 46.5 0
22:22 1024 30.24 854 25.22 18.3 64.9 51 8 46.5 0
22:23 1024 30.24 854 25.22 18.2 64.8 52 8.3 46.9 0
22:24 1024 30.24 854 25.22 18.1 64.5 53 8.5 47.4 0
22:25 1024 30.24 854 25.22 17.8 64.1 55 8.7 47.6 0
22:26 1024 30.24 854 25.22 17.7 63.8 54 8.5 47.2 0
22:27 1024 30.24 854 25.22 17.6 63.7 53 8 46.5 0
22:28 1024 30.24 854 25.22 17.6 63.7 54 8.2 46.8 0
22:29 1024 30.24 854 25.22 17.6 63.7 52 7.7 45.8 0
22:30 1024 30.24 854 25.22 17.8 64 52 7.9 46.2 0
22:31 1024 30.24 854 25.22 17.9 64.1 53 8.2 46.7 0
22:32 1024 30.24 854 25.22 17.8 64.1 52 7.9 46.3 0
22:33 1024 30.24 854 25.22 17.8 64.1 52 7.8 46.1 0
22:34 1024 30.24 854 25.22 17.8 64.1 52 8 46.4 0
22:35 1024 30.24 854 25.22 17.8 64.1 52 7.8 46.1 0
22:36 1024 30.24 854 25.22 17.9 64.1 52 7.9 46.2 0
22:37 1024 30.24 854 25.22 17.9 64.2 52 8 46.5 0
22:38 1024 30.24 854 25.22 17.9 64.2 51 7.8 46 0
22:39 1024 30.24 854 25.22 18 64.3 51 7.8 46 0
22:40 1024 30.24 854 25.22 18 64.4 51 7.8 46.1 0
22:41 1024 30.24 854 25.22 18 64.3 51 7.8 46 0
22:42 1024 30.24 854 25.22 18 64.4 51 7.8 46 0
22:43 1024 30.24 854 25.22 18.1 64.5 51 7.8 46.1 0
22:44 1024 30.24 854 25.22 18.1 64.6 49 7.3 45.1 0
22:45 1024 30.24 854 25.22 18.2 64.7 49 7.5 45.4 0
22:46 1024 30.24 854 25.22 18.3 64.9 48 7.3 45.1 0
22:47 1024 30.24 854 25.22 18.3 64.9 50 7.7 45.9 0
22:48 1024 30.24 854 25.22 18.2 64.8 49 7.5 45.5 0
22:49 1024 30.24 854 25.22 18.2 64.7 50 7.7 45.8 0
22:50 1024 30.24 853 25.19 18.1 64.6 49 7.2 45 0
22:51 1024 30.24 854 25.22 18.2 64.7 50 7.6 45.7 0
22:52 1024 30.24 854 25.22 18.1 64.5 49 7.3 45.1 0
22:53 1024 30.24 853 25.19 18 64.5 50 7.5 45.4 0
22:54 1024 30.24 853 25.19 18 64.4 49 7.3 45.2 0
22:55 1024 30.24 853 25.19 17.9 64.3 49 7.2 44.9 0
22:56 1024 30.24 853 25.19 17.9 64.3 50 7.4 45.3 0
22:57 1024 30.24 853 25.19 17.9 64.1 50 7.4 45.3 0
22:58 1024 30.24 853 25.19 17.9 64.2 50 7.5 45.4 0
22:59 1024 30.24 853 25.19 17.9 64.3 48 6.8 44.3 0
23:00 1024 30.24 853 25.19 18 64.5 49 7.3 45.1 0
23:01 1024 30.24 853 25.19 18 64.5 49 7.2 45 0
23:02 1024 30.24 853 25.19 18 64.4 50 7.4 45.3 0
23:03 1024 30.24 853 25.19 17.9 64.1 51 7.7 45.8 0
23:04 1024 30.24 853 25.19 17.7 63.9 51 7.6 45.7 0
23:05 1024 30.24 853 25.19 17.6 63.6 51 7.5 45.5 0
23:06 1024 30.24 853 25.19 17.6 63.6 51 7.5 45.4 0
23:07 1024 30.24 853 25.19 17.5 63.6 50 7.2 44.9 0
23:08 1024 30.24 853 25.19 17.6 63.6 51 7.3 45.1 0
23:09 1024 30.24 853 25.19 17.5 63.5 50 7.1 44.7 0
23:10 1024 30.24 853 25.19 17.6 63.6 51 7.3 45.1 0
23:11 1024 30.24 853 25.19 17.7 63.8 50 7.3 45.2 0
23:12 1024 30.24 853 25.19 17.6 63.7 50 7.1 44.8 0
23:13 1024 30.24 853 25.19 17.6 63.8 50 7.3 45.2 0
23:14 1024 30.24 853 25.19 17.7 63.8 50 7.1 44.8 0
23:15 1024 30.24 853 25.19 17.6 63.7 51 7.4 45.2 0
23:16 1024 30.24 853 25.19 17.5 63.5 51 7.4 45.3 0
23:17 1024 30.24 853 25.19 17.4 63.3 52 7.5 45.5 0
23:18 1024 30.24 853 25.19 17.4 63.3 51 7.2 45 0
23:19 1024 30.24 853 25.19 17.3 63.2 52 7.4 45.4 0
23:20 1024 30.24 853 25.19 17.2 62.9 52 7.4 45.3 0
23:21 1024 30.24 853 25.19 17.1 62.8 51 7.1 44.8 0
23:22 1024 30.24 853 25.19 17.2 62.9 52 7.2 45 0
23:23 1024 30.24 853 25.19 17.2 62.9 51 7.1 44.8 0
23:24 1024 30.24 853 25.19 17.3 63.1 52 7.4 45.2 0
23:25 1024 30.24 853 25.19 17.2 63 51 7.2 45 0
23:26 1024 30.24 853 25.19 17.2 63 52 7.5 45.5 0
23:27 1024 30.24 853 25.19 17.2 62.9 51 7 44.6 0
23:28 1024 30.24 853 25.19 17.3 63.1 50 6.9 44.4 0
23:29 1024 30.24 853 25.19 17.3 63.1 50 6.9 44.4 0
23:30 1024 30.24 853 25.19 17.3 63.2 50 7 44.6 0
23:31 1024 30.24 853 25.19 17.3 63.2 51 7.2 44.9 0
23:32 1024 30.24 853 25.19 17.3 63.1 50 7 44.5 0
23:33 1024 30.24 853 25.19 17.3 63.1 50 6.9 44.4 0
23:34 1024 30.24 853 25.19 17.4 63.2 51 7.3 45.2 0
23:35 1024 30.24 853 25.19 17.3 63.2 51 7.2 44.9 0
23:36 1024 30.24 853 25.19 17.3 63.1 51 7.1 44.7 0
23:37 1024 30.24 853 25.19 17.3 63.1 51 7 44.7 0
23:38 1024 30.24 853 25.19 17.3 63.1 51 7.2 45 0
23:39 1024 30.24 853 25.19 17.3 63.2 51 7.2 44.9 0
23:40 1024 30.24 853 25.19 17.4 63.3 51 7.1 44.8 0
23:41 1024 30.24 853 25.19 17.4 63.3 50 7.1 44.8 0
23:42 1024 30.24 853 25.19 17.5 63.4 51 7.2 45 0
23:43 1024 30.24 853 25.19 17.4 63.4 51 7.3 45.1 0
23:44 1024 30.24 853 25.19 17.4 63.3 50 7.1 44.8 0
23:45 1024 30.24 853 25.19 17.4 63.4 52 7.4 45.4 0
23:46 1024 30.24 853 25.19 17.5 63.4 51 7.4 45.3 0
23:47 1024 30.24 853 25.19 17.4 63.4 52 7.7 45.8 0
23:48 1024 30.24 853 25.19 17.4 63.2 51 7.3 45.1 0
23:49 1024 30.24 853 25.19 17.4 63.3 51 7.3 45.1 0
23:50 1024 30.24 853 25.19 17.4 63.4 51 7.4 45.3 0
23:51 1024 30.24 853 25.19 17.4 63.3 50 7.1 44.7 0
23:52 1024 30.24 853 25.19 17.4 63.4 51 7.3 45.1 0
23:53 1024 30.24 853 25.19 17.5 63.4 51 7.4 45.4 0
23:54 1024 30.24 853 25.19 17.4 63.4 51 7.4 45.3 0
23:55 1024 30.24 853 25.19 17.4 63.4 51 7.3 45.2 0
23:56 1024 30.24 853 25.19 17.3 63.2 52 7.4 45.3 0
23:57 1024 30.24 853 25.19 17.3 63.1 52 7.3 45.2 0
23:58 1024 30.24 854 25.22 17.2 63 51 7 44.6 0
23:59 1024 30.24 854 25.22 17.2 63 52 7.5 45.4 0
24:00 1024 30.24 854 25.22 17.2 62.9 53 7.5 45.5 0